<?xml version="1.0" encoding="UTF-8" standalone="no" ?>
<gpx xmlns="http://www.topografix.com/GPX/1/1" xmlns:xsi="http://www.w3.org/2001/XMLSchema-instance" xsi:schemaLocation="http://www.topografix.com/GPX/1/1 http://www.topografix.com/GPX/1/1/gpx.xsd" version="1.1" creator="VisuGPX - https://www.visugpx.com">
  <metadata>
    <name>Route Miribel</name>
    <desc><![CDATA[Bonne promenade sur route, environs de Miribel]]></desc>
  </metadata>
  <trk>
    <name><![CDATA[Path Segment 1]]></name>
    <trkseg>
      <trkpt lat="45.4382" lon="5.70365">
        <ele>759</ele>
        <time>2013-08-10T07:39:06.932Z</time>
      </trkpt>
      <trkpt lat="45.43827" lon="5.70365">
        <ele>757</ele>
        <time>2013-08-10T07:39:11.930Z</time>
      </trkpt>
      <trkpt lat="45.43827" lon="5.70366">
        <ele>757</ele>
        <time>2013-08-10T07:39:16.937Z</time>
      </trkpt>
      <trkpt lat="45.43826" lon="5.70368">
        <ele>757</ele>
        <time>2013-08-10T07:39:21.938Z</time>
      </trkpt>
      <trkpt lat="45.43827" lon="5.70372">
        <ele>753</ele>
        <time>2013-08-10T07:39:26.936Z</time>
      </trkpt>
      <trkpt lat="45.43824" lon="5.70366">
        <ele>756</ele>
        <time>2013-08-10T07:39:31.940Z</time>
      </trkpt>
      <trkpt lat="45.43823" lon="5.70363">
        <ele>760</ele>
        <time>2013-08-10T07:39:36.938Z</time>
      </trkpt>
      <trkpt lat="45.4382" lon="5.70356">
        <ele>762</ele>
        <time>2013-08-10T07:39:41.938Z</time>
      </trkpt>
      <trkpt lat="45.43817" lon="5.70353">
        <ele>763</ele>
        <time>2013-08-10T07:39:46.939Z</time>
      </trkpt>
      <trkpt lat="45.43813" lon="5.70349">
        <ele>761</ele>
        <time>2013-08-10T07:39:51.949Z</time>
      </trkpt>
      <trkpt lat="45.43809" lon="5.70346">
        <ele>761</ele>
        <time>2013-08-10T07:39:56.934Z</time>
      </trkpt>
      <trkpt lat="45.43806" lon="5.70341">
        <ele>761</ele>
        <time>2013-08-10T07:40:01.939Z</time>
      </trkpt>
      <trkpt lat="45.43803" lon="5.70335">
        <ele>761</ele>
        <time>2013-08-10T07:40:06.944Z</time>
      </trkpt>
      <trkpt lat="45.43801" lon="5.7033">
        <ele>762</ele>
        <time>2013-08-10T07:40:11.941Z</time>
      </trkpt>
      <trkpt lat="45.43801" lon="5.70328">
        <ele>762</ele>
        <time>2013-08-10T07:40:16.936Z</time>
      </trkpt>
      <trkpt lat="45.438" lon="5.70327">
        <ele>762</ele>
        <time>2013-08-10T07:40:21.946Z</time>
      </trkpt>
      <trkpt lat="45.43801" lon="5.70328">
        <ele>763</ele>
        <time>2013-08-10T07:40:26.937Z</time>
      </trkpt>
      <trkpt lat="45.43805" lon="5.70328">
        <ele>764</ele>
        <time>2013-08-10T07:40:31.935Z</time>
      </trkpt>
      <trkpt lat="45.43813" lon="5.70326">
        <ele>764</ele>
        <time>2013-08-10T07:40:36.936Z</time>
      </trkpt>
      <trkpt lat="45.43821" lon="5.70326">
        <ele>765</ele>
        <time>2013-08-10T07:40:41.939Z</time>
      </trkpt>
      <trkpt lat="45.43829" lon="5.70326">
        <ele>765</ele>
        <time>2013-08-10T07:40:46.941Z</time>
      </trkpt>
      <trkpt lat="45.43838" lon="5.70326">
        <ele>765</ele>
        <time>2013-08-10T07:40:51.947Z</time>
      </trkpt>
      <trkpt lat="45.43847" lon="5.70318">
        <ele>765</ele>
        <time>2013-08-10T07:40:56.936Z</time>
      </trkpt>
      <trkpt lat="45.43853" lon="5.70303">
        <ele>765</ele>
        <time>2013-08-10T07:41:06.923Z</time>
      </trkpt>
      <trkpt lat="45.43856" lon="5.70295">
        <ele>766</ele>
        <time>2013-08-10T07:41:11.933Z</time>
      </trkpt>
      <trkpt lat="45.43858" lon="5.70286">
        <ele>766</ele>
        <time>2013-08-10T07:41:16.931Z</time>
      </trkpt>
      <trkpt lat="45.43863" lon="5.70276">
        <ele>767</ele>
        <time>2013-08-10T07:41:21.947Z</time>
      </trkpt>
      <trkpt lat="45.43871" lon="5.7027">
        <ele>768</ele>
        <time>2013-08-10T07:41:26.937Z</time>
      </trkpt>
      <trkpt lat="45.43879" lon="5.70269">
        <ele>768</ele>
        <time>2013-08-10T07:41:31.939Z</time>
      </trkpt>
      <trkpt lat="45.43886" lon="5.70266">
        <ele>769</ele>
        <time>2013-08-10T07:41:36.937Z</time>
      </trkpt>
      <trkpt lat="45.43894" lon="5.70266">
        <ele>770</ele>
        <time>2013-08-10T07:41:41.938Z</time>
      </trkpt>
      <trkpt lat="45.43906" lon="5.70265">
        <ele>770</ele>
        <time>2013-08-10T07:41:46.937Z</time>
      </trkpt>
      <trkpt lat="45.43918" lon="5.7026">
        <ele>771</ele>
        <time>2013-08-10T07:41:51.949Z</time>
      </trkpt>
      <trkpt lat="45.43934" lon="5.70253">
        <ele>772</ele>
        <time>2013-08-10T07:41:56.939Z</time>
      </trkpt>
      <trkpt lat="45.43946" lon="5.70249">
        <ele>772</ele>
        <time>2013-08-10T07:42:01.953Z</time>
      </trkpt>
      <trkpt lat="45.43953" lon="5.70245">
        <ele>773</ele>
        <time>2013-08-10T07:42:06.941Z</time>
      </trkpt>
      <trkpt lat="45.43962" lon="5.70237">
        <ele>773</ele>
        <time>2013-08-10T07:42:11.924Z</time>
      </trkpt>
      <trkpt lat="45.43983" lon="5.70216">
        <ele>774</ele>
        <time>2013-08-10T07:42:21.951Z</time>
      </trkpt>
      <trkpt lat="45.43991" lon="5.70211">
        <ele>773</ele>
        <time>2013-08-10T07:42:26.940Z</time>
      </trkpt>
      <trkpt lat="45.43995" lon="5.70221">
        <ele>773</ele>
        <time>2013-08-10T07:42:31.941Z</time>
      </trkpt>
      <trkpt lat="45.44" lon="5.70236">
        <ele>772</ele>
        <time>2013-08-10T07:42:36.938Z</time>
      </trkpt>
      <trkpt lat="45.43997" lon="5.70257">
        <ele>770</ele>
        <time>2013-08-10T07:42:41.942Z</time>
      </trkpt>
      <trkpt lat="45.43986" lon="5.70288">
        <ele>768</ele>
        <time>2013-08-10T07:42:46.941Z</time>
      </trkpt>
      <trkpt lat="45.43979" lon="5.70313">
        <ele>767</ele>
        <time>2013-08-10T07:42:51.952Z</time>
      </trkpt>
      <trkpt lat="45.43973" lon="5.70347">
        <ele>766</ele>
        <time>2013-08-10T07:42:56.939Z</time>
      </trkpt>
      <trkpt lat="45.44" lon="5.70365">
        <ele>763</ele>
        <time>2013-08-10T07:43:01.936Z</time>
      </trkpt>
      <trkpt lat="45.44027" lon="5.70356">
        <ele>757</ele>
        <time>2013-08-10T07:43:06.937Z</time>
      </trkpt>
      <trkpt lat="45.44054" lon="5.70369">
        <ele>757</ele>
        <time>2013-08-10T07:43:11.935Z</time>
      </trkpt>
      <trkpt lat="45.44089" lon="5.70395">
        <ele>755</ele>
        <time>2013-08-10T07:43:16.943Z</time>
      </trkpt>
      <trkpt lat="45.4412" lon="5.70387">
        <ele>754</ele>
        <time>2013-08-10T07:43:21.946Z</time>
      </trkpt>
      <trkpt lat="45.4414" lon="5.7037">
        <ele>752</ele>
        <time>2013-08-10T07:43:26.930Z</time>
      </trkpt>
      <trkpt lat="45.44152" lon="5.7036">
        <ele>749</ele>
        <time>2013-08-10T07:43:31.938Z</time>
      </trkpt>
      <trkpt lat="45.44163" lon="5.70351">
        <ele>749</ele>
        <time>2013-08-10T07:43:36.938Z</time>
      </trkpt>
      <trkpt lat="45.44177" lon="5.70346">
        <ele>749</ele>
        <time>2013-08-10T07:43:41.937Z</time>
      </trkpt>
      <trkpt lat="45.44187" lon="5.70348">
        <ele>748</ele>
        <time>2013-08-10T07:43:46.937Z</time>
      </trkpt>
      <trkpt lat="45.44188" lon="5.70349">
        <ele>747</ele>
        <time>2013-08-10T07:43:51.951Z</time>
      </trkpt>
      <trkpt lat="45.4419" lon="5.70349">
        <ele>746</ele>
        <time>2013-08-10T07:43:56.936Z</time>
      </trkpt>
      <trkpt lat="45.44196" lon="5.70342">
        <ele>745</ele>
        <time>2013-08-10T07:44:01.938Z</time>
      </trkpt>
      <trkpt lat="45.44207" lon="5.70328">
        <ele>745</ele>
        <time>2013-08-10T07:44:06.935Z</time>
      </trkpt>
      <trkpt lat="45.44215" lon="5.70318">
        <ele>745</ele>
        <time>2013-08-10T07:44:11.943Z</time>
      </trkpt>
      <trkpt lat="45.44226" lon="5.7031">
        <ele>745</ele>
        <time>2013-08-10T07:44:16.943Z</time>
      </trkpt>
      <trkpt lat="45.44238" lon="5.70305">
        <ele>746</ele>
        <time>2013-08-10T07:44:21.954Z</time>
      </trkpt>
      <trkpt lat="45.44252" lon="5.70303">
        <ele>746</ele>
        <time>2013-08-10T07:44:26.942Z</time>
      </trkpt>
      <trkpt lat="45.44266" lon="5.70305">
        <ele>746</ele>
        <time>2013-08-10T07:44:31.944Z</time>
      </trkpt>
      <trkpt lat="45.44279" lon="5.70308">
        <ele>747</ele>
        <time>2013-08-10T07:44:36.946Z</time>
      </trkpt>
      <trkpt lat="45.44291" lon="5.70312">
        <ele>748</ele>
        <time>2013-08-10T07:44:41.941Z</time>
      </trkpt>
      <trkpt lat="45.44302" lon="5.70312">
        <ele>749</ele>
        <time>2013-08-10T07:44:46.944Z</time>
      </trkpt>
      <trkpt lat="45.44313" lon="5.70308">
        <ele>751</ele>
        <time>2013-08-10T07:44:51.961Z</time>
      </trkpt>
      <trkpt lat="45.44324" lon="5.70301">
        <ele>752</ele>
        <time>2013-08-10T07:44:56.943Z</time>
      </trkpt>
      <trkpt lat="45.44334" lon="5.70292">
        <ele>752</ele>
        <time>2013-08-10T07:45:01.922Z</time>
      </trkpt>
      <trkpt lat="45.44341" lon="5.70283">
        <ele>752</ele>
        <time>2013-08-10T07:45:06.943Z</time>
      </trkpt>
      <trkpt lat="45.44348" lon="5.70268">
        <ele>752</ele>
        <time>2013-08-10T07:45:11.951Z</time>
      </trkpt>
      <trkpt lat="45.44352" lon="5.7025">
        <ele>753</ele>
        <time>2013-08-10T07:45:16.946Z</time>
      </trkpt>
      <trkpt lat="45.44356" lon="5.70235">
        <ele>755</ele>
        <time>2013-08-10T07:45:21.959Z</time>
      </trkpt>
      <trkpt lat="45.4436" lon="5.70216">
        <ele>757</ele>
        <time>2013-08-10T07:45:26.946Z</time>
      </trkpt>
      <trkpt lat="45.44367" lon="5.70201">
        <ele>758</ele>
        <time>2013-08-10T07:45:31.942Z</time>
      </trkpt>
      <trkpt lat="45.44375" lon="5.70187">
        <ele>758</ele>
        <time>2013-08-10T07:45:36.949Z</time>
      </trkpt>
      <trkpt lat="45.44384" lon="5.70175">
        <ele>759</ele>
        <time>2013-08-10T07:45:41.943Z</time>
      </trkpt>
      <trkpt lat="45.44394" lon="5.70162">
        <ele>760</ele>
        <time>2013-08-10T07:45:46.943Z</time>
      </trkpt>
      <trkpt lat="45.44403" lon="5.70153">
        <ele>761</ele>
        <time>2013-08-10T07:45:51.961Z</time>
      </trkpt>
      <trkpt lat="45.44415" lon="5.70145">
        <ele>762</ele>
        <time>2013-08-10T07:45:56.943Z</time>
      </trkpt>
      <trkpt lat="45.44428" lon="5.70138">
        <ele>763</ele>
        <time>2013-08-10T07:46:01.939Z</time>
      </trkpt>
      <trkpt lat="45.44441" lon="5.70134">
        <ele>764</ele>
        <time>2013-08-10T07:46:06.942Z</time>
      </trkpt>
      <trkpt lat="45.44453" lon="5.70132">
        <ele>765</ele>
        <time>2013-08-10T07:46:11.949Z</time>
      </trkpt>
      <trkpt lat="45.44462" lon="5.70126">
        <ele>766</ele>
        <time>2013-08-10T07:46:16.942Z</time>
      </trkpt>
      <trkpt lat="45.44475" lon="5.70119">
        <ele>767</ele>
        <time>2013-08-10T07:46:21.964Z</time>
      </trkpt>
      <trkpt lat="45.44487" lon="5.70114">
        <ele>768</ele>
        <time>2013-08-10T07:46:26.944Z</time>
      </trkpt>
      <trkpt lat="45.445" lon="5.7011">
        <ele>769</ele>
        <time>2013-08-10T07:46:31.941Z</time>
      </trkpt>
      <trkpt lat="45.44513" lon="5.70106">
        <ele>769</ele>
        <time>2013-08-10T07:46:36.946Z</time>
      </trkpt>
      <trkpt lat="45.44525" lon="5.70104">
        <ele>770</ele>
        <time>2013-08-10T07:46:41.927Z</time>
      </trkpt>
      <trkpt lat="45.44545" lon="5.70102">
        <ele>773</ele>
        <time>2013-08-10T07:46:51.962Z</time>
      </trkpt>
      <trkpt lat="45.44558" lon="5.70101">
        <ele>774</ele>
        <time>2013-08-10T07:46:56.943Z</time>
      </trkpt>
      <trkpt lat="45.4457" lon="5.70094">
        <ele>777</ele>
        <time>2013-08-10T07:47:01.943Z</time>
      </trkpt>
      <trkpt lat="45.44578" lon="5.70078">
        <ele>777</ele>
        <time>2013-08-10T07:47:06.946Z</time>
      </trkpt>
      <trkpt lat="45.44577" lon="5.70059">
        <ele>780</ele>
        <time>2013-08-10T07:47:11.944Z</time>
      </trkpt>
      <trkpt lat="45.44567" lon="5.70045">
        <ele>781</ele>
        <time>2013-08-10T07:47:16.941Z</time>
      </trkpt>
      <trkpt lat="45.44553" lon="5.70041">
        <ele>782</ele>
        <time>2013-08-10T07:47:21.953Z</time>
      </trkpt>
      <trkpt lat="45.44541" lon="5.70037">
        <ele>782</ele>
        <time>2013-08-10T07:47:26.944Z</time>
      </trkpt>
      <trkpt lat="45.4453" lon="5.70031">
        <ele>783</ele>
        <time>2013-08-10T07:47:31.949Z</time>
      </trkpt>
      <trkpt lat="45.4452" lon="5.70024">
        <ele>784</ele>
        <time>2013-08-10T07:47:36.949Z</time>
      </trkpt>
      <trkpt lat="45.44509" lon="5.70016">
        <ele>784</ele>
        <time>2013-08-10T07:47:41.927Z</time>
      </trkpt>
      <trkpt lat="45.44499" lon="5.70008">
        <ele>784</ele>
        <time>2013-08-10T07:47:46.946Z</time>
      </trkpt>
      <trkpt lat="45.44486" lon="5.69998">
        <ele>785</ele>
        <time>2013-08-10T07:47:51.952Z</time>
      </trkpt>
      <trkpt lat="45.44474" lon="5.69988">
        <ele>787</ele>
        <time>2013-08-10T07:47:56.939Z</time>
      </trkpt>
      <trkpt lat="45.44393" lon="5.69897">
        <ele>796</ele>
        <time>2013-08-10T07:48:37.013Z</time>
      </trkpt>
      <trkpt lat="45.44385" lon="5.6986">
        <ele>798</ele>
        <time>2013-08-10T07:48:46.942Z</time>
      </trkpt>
      <trkpt lat="45.4438" lon="5.69843">
        <ele>799</ele>
        <time>2013-08-10T07:48:51.949Z</time>
      </trkpt>
      <trkpt lat="45.44377" lon="5.69825">
        <ele>800</ele>
        <time>2013-08-10T07:48:56.951Z</time>
      </trkpt>
      <trkpt lat="45.44368" lon="5.69787">
        <ele>801</ele>
        <time>2013-08-10T07:49:08.526Z</time>
      </trkpt>
      <trkpt lat="45.44362" lon="5.69768">
        <ele>802</ele>
        <time>2013-08-10T07:49:11.928Z</time>
      </trkpt>
      <trkpt lat="45.44357" lon="5.69748">
        <ele>803</ele>
        <time>2013-08-10T07:49:16.939Z</time>
      </trkpt>
      <trkpt lat="45.44352" lon="5.69729">
        <ele>803</ele>
        <time>2013-08-10T07:49:21.959Z</time>
      </trkpt>
      <trkpt lat="45.44348" lon="5.69709">
        <ele>804</ele>
        <time>2013-08-10T07:49:26.942Z</time>
      </trkpt>
      <trkpt lat="45.44343" lon="5.69689">
        <ele>805</ele>
        <time>2013-08-10T07:49:31.946Z</time>
      </trkpt>
      <trkpt lat="45.44338" lon="5.69671">
        <ele>806</ele>
        <time>2013-08-10T07:49:36.944Z</time>
      </trkpt>
      <trkpt lat="45.44333" lon="5.69653">
        <ele>807</ele>
        <time>2013-08-10T07:49:41.927Z</time>
      </trkpt>
      <trkpt lat="45.44327" lon="5.69634">
        <ele>807</ele>
        <time>2013-08-10T07:49:46.935Z</time>
      </trkpt>
      <trkpt lat="45.44317" lon="5.69619">
        <ele>809</ele>
        <time>2013-08-10T07:49:51.937Z</time>
      </trkpt>
      <trkpt lat="45.44306" lon="5.69607">
        <ele>810</ele>
        <time>2013-08-10T07:49:56.925Z</time>
      </trkpt>
      <trkpt lat="45.44279" lon="5.69584">
        <ele>815</ele>
        <time>2013-08-10T07:50:06.940Z</time>
      </trkpt>
      <trkpt lat="45.44267" lon="5.69573">
        <ele>815</ele>
        <time>2013-08-10T07:50:11.950Z</time>
      </trkpt>
      <trkpt lat="45.44256" lon="5.69564">
        <ele>816</ele>
        <time>2013-08-10T07:50:16.940Z</time>
      </trkpt>
      <trkpt lat="45.44243" lon="5.69553">
        <ele>817</ele>
        <time>2013-08-10T07:50:21.948Z</time>
      </trkpt>
      <trkpt lat="45.44231" lon="5.69541">
        <ele>818</ele>
        <time>2013-08-10T07:50:26.945Z</time>
      </trkpt>
      <trkpt lat="45.44218" lon="5.6953">
        <ele>819</ele>
        <time>2013-08-10T07:50:31.937Z</time>
      </trkpt>
      <trkpt lat="45.44207" lon="5.69519">
        <ele>819</ele>
        <time>2013-08-10T07:50:36.939Z</time>
      </trkpt>
      <trkpt lat="45.44195" lon="5.69508">
        <ele>820</ele>
        <time>2013-08-10T07:50:41.944Z</time>
      </trkpt>
      <trkpt lat="45.44182" lon="5.69498">
        <ele>822</ele>
        <time>2013-08-10T07:50:46.944Z</time>
      </trkpt>
      <trkpt lat="45.4417" lon="5.69488">
        <ele>823</ele>
        <time>2013-08-10T07:50:51.955Z</time>
      </trkpt>
      <trkpt lat="45.44156" lon="5.6948">
        <ele>825</ele>
        <time>2013-08-10T07:50:56.943Z</time>
      </trkpt>
      <trkpt lat="45.44035" lon="5.69449">
        <ele>833</ele>
        <time>2013-08-10T07:51:36.946Z</time>
      </trkpt>
      <trkpt lat="45.4402" lon="5.69443">
        <ele>834</ele>
        <time>2013-08-10T07:51:41.936Z</time>
      </trkpt>
      <trkpt lat="45.44006" lon="5.69433">
        <ele>835</ele>
        <time>2013-08-10T07:51:46.940Z</time>
      </trkpt>
      <trkpt lat="45.43992" lon="5.69424">
        <ele>836</ele>
        <time>2013-08-10T07:51:51.950Z</time>
      </trkpt>
      <trkpt lat="45.4398" lon="5.69415">
        <ele>837</ele>
        <time>2013-08-10T07:51:56.936Z</time>
      </trkpt>
      <trkpt lat="45.43966" lon="5.69408">
        <ele>838</ele>
        <time>2013-08-10T07:52:03.817Z</time>
      </trkpt>
      <trkpt lat="45.43951" lon="5.69402">
        <ele>839</ele>
        <time>2013-08-10T07:52:06.944Z</time>
      </trkpt>
      <trkpt lat="45.43936" lon="5.69396">
        <ele>840</ele>
        <time>2013-08-10T07:52:11.939Z</time>
      </trkpt>
      <trkpt lat="45.43923" lon="5.69391">
        <ele>841</ele>
        <time>2013-08-10T07:52:16.943Z</time>
      </trkpt>
      <trkpt lat="45.43909" lon="5.69386">
        <ele>842</ele>
        <time>2013-08-10T07:52:21.955Z</time>
      </trkpt>
      <trkpt lat="45.43896" lon="5.69382">
        <ele>845</ele>
        <time>2013-08-10T07:52:26.943Z</time>
      </trkpt>
      <trkpt lat="45.4388" lon="5.69374">
        <ele>846</ele>
        <time>2013-08-10T07:52:31.941Z</time>
      </trkpt>
      <trkpt lat="45.43863" lon="5.69367">
        <ele>848</ele>
        <time>2013-08-10T07:52:36.974Z</time>
      </trkpt>
      <trkpt lat="45.43848" lon="5.69359">
        <ele>849</ele>
        <time>2013-08-10T07:52:41.943Z</time>
      </trkpt>
      <trkpt lat="45.43835" lon="5.69347">
        <ele>850</ele>
        <time>2013-08-10T07:52:46.939Z</time>
      </trkpt>
      <trkpt lat="45.43825" lon="5.69333">
        <ele>850</ele>
        <time>2013-08-10T07:52:51.953Z</time>
      </trkpt>
      <trkpt lat="45.43814" lon="5.69256">
        <ele>855</ele>
        <time>2013-08-10T07:53:42.659Z</time>
      </trkpt>
      <trkpt lat="45.43814" lon="5.69255">
        <ele>856</ele>
        <time>2013-08-10T07:53:51.951Z</time>
      </trkpt>
      <trkpt lat="45.43814" lon="5.69255">
        <ele>856</ele>
        <time>2013-08-10T07:53:56.941Z</time>
      </trkpt>
      <trkpt lat="45.43814" lon="5.69254">
        <ele>858</ele>
        <time>2013-08-10T07:54:06.938Z</time>
      </trkpt>
      <trkpt lat="45.43815" lon="5.69253">
        <ele>858</ele>
        <time>2013-08-10T07:54:11.937Z</time>
      </trkpt>
      <trkpt lat="45.43815" lon="5.69253">
        <ele>858</ele>
        <time>2013-08-10T07:54:16.941Z</time>
      </trkpt>
      <trkpt lat="45.43814" lon="5.69253">
        <ele>858</ele>
        <time>2013-08-10T07:54:21.947Z</time>
      </trkpt>
      <trkpt lat="45.43814" lon="5.69252">
        <ele>858</ele>
        <time>2013-08-10T07:54:26.934Z</time>
      </trkpt>
      <trkpt lat="45.43815" lon="5.6925">
        <ele>860</ele>
        <time>2013-08-10T07:54:31.939Z</time>
      </trkpt>
      <trkpt lat="45.43814" lon="5.6925">
        <ele>860</ele>
        <time>2013-08-10T07:54:36.934Z</time>
      </trkpt>
      <trkpt lat="45.43816" lon="5.69242">
        <ele>860</ele>
        <time>2013-08-10T07:54:41.937Z</time>
      </trkpt>
      <trkpt lat="45.4382" lon="5.69224">
        <ele>860</ele>
        <time>2013-08-10T07:54:46.941Z</time>
      </trkpt>
      <trkpt lat="45.43822" lon="5.69205">
        <ele>860</ele>
        <time>2013-08-10T07:54:51.951Z</time>
      </trkpt>
      <trkpt lat="45.43825" lon="5.69185">
        <ele>860</ele>
        <time>2013-08-10T07:54:56.942Z</time>
      </trkpt>
      <trkpt lat="45.43827" lon="5.69166">
        <ele>861</ele>
        <time>2013-08-10T07:55:01.938Z</time>
      </trkpt>
      <trkpt lat="45.43829" lon="5.69145">
        <ele>862</ele>
        <time>2013-08-10T07:55:06.942Z</time>
      </trkpt>
      <trkpt lat="45.43831" lon="5.69123">
        <ele>862</ele>
        <time>2013-08-10T07:55:11.937Z</time>
      </trkpt>
      <trkpt lat="45.43834" lon="5.691">
        <ele>863</ele>
        <time>2013-08-10T07:55:16.938Z</time>
      </trkpt>
      <trkpt lat="45.43836" lon="5.69076">
        <ele>863</ele>
        <time>2013-08-10T07:55:21.951Z</time>
      </trkpt>
      <trkpt lat="45.43839" lon="5.69055">
        <ele>863</ele>
        <time>2013-08-10T07:55:26.924Z</time>
      </trkpt>
      <trkpt lat="45.43843" lon="5.69009">
        <ele>865</ele>
        <time>2013-08-10T07:55:36.944Z</time>
      </trkpt>
      <trkpt lat="45.43846" lon="5.68987">
        <ele>865</ele>
        <time>2013-08-10T07:55:41.942Z</time>
      </trkpt>
      <trkpt lat="45.43848" lon="5.68965">
        <ele>866</ele>
        <time>2013-08-10T07:55:46.936Z</time>
      </trkpt>
      <trkpt lat="45.43852" lon="5.68945">
        <ele>867</ele>
        <time>2013-08-10T07:55:51.951Z</time>
      </trkpt>
      <trkpt lat="45.43861" lon="5.68926">
        <ele>868</ele>
        <time>2013-08-10T07:55:56.942Z</time>
      </trkpt>
      <trkpt lat="45.43875" lon="5.68912">
        <ele>870</ele>
        <time>2013-08-10T07:56:01.942Z</time>
      </trkpt>
      <trkpt lat="45.43891" lon="5.68901">
        <ele>871</ele>
        <time>2013-08-10T07:56:06.937Z</time>
      </trkpt>
      <trkpt lat="45.43909" lon="5.68895">
        <ele>871</ele>
        <time>2013-08-10T07:56:11.942Z</time>
      </trkpt>
      <trkpt lat="45.43926" lon="5.68885">
        <ele>871</ele>
        <time>2013-08-10T07:56:16.937Z</time>
      </trkpt>
      <trkpt lat="45.43944" lon="5.68876">
        <ele>872</ele>
        <time>2013-08-10T07:56:21.951Z</time>
      </trkpt>
      <trkpt lat="45.43961" lon="5.68868">
        <ele>872</ele>
        <time>2013-08-10T07:56:26.945Z</time>
      </trkpt>
      <trkpt lat="45.43977" lon="5.68858">
        <ele>872</ele>
        <time>2013-08-10T07:56:31.939Z</time>
      </trkpt>
      <trkpt lat="45.43991" lon="5.68845">
        <ele>872</ele>
        <time>2013-08-10T07:56:36.945Z</time>
      </trkpt>
      <trkpt lat="45.44002" lon="5.68822">
        <ele>872</ele>
        <time>2013-08-10T07:56:41.943Z</time>
      </trkpt>
      <trkpt lat="45.44007" lon="5.68795">
        <ele>874</ele>
        <time>2013-08-10T07:56:46.939Z</time>
      </trkpt>
      <trkpt lat="45.44005" lon="5.68769">
        <ele>875</ele>
        <time>2013-08-10T07:56:51.955Z</time>
      </trkpt>
      <trkpt lat="45.43996" lon="5.68745">
        <ele>875</ele>
        <time>2013-08-10T07:56:56.942Z</time>
      </trkpt>
      <trkpt lat="45.43984" lon="5.68725">
        <ele>876</ele>
        <time>2013-08-10T07:57:01.937Z</time>
      </trkpt>
      <trkpt lat="45.43972" lon="5.68708">
        <ele>876</ele>
        <time>2013-08-10T07:57:06.941Z</time>
      </trkpt>
      <trkpt lat="45.43959" lon="5.6869">
        <ele>877</ele>
        <time>2013-08-10T07:57:11.942Z</time>
      </trkpt>
      <trkpt lat="45.43947" lon="5.68671">
        <ele>878</ele>
        <time>2013-08-10T07:57:16.941Z</time>
      </trkpt>
      <trkpt lat="45.43934" lon="5.68653">
        <ele>879</ele>
        <time>2013-08-10T07:57:21.948Z</time>
      </trkpt>
      <trkpt lat="45.4392" lon="5.68635">
        <ele>880</ele>
        <time>2013-08-10T07:57:26.940Z</time>
      </trkpt>
      <trkpt lat="45.43908" lon="5.68618">
        <ele>881</ele>
        <time>2013-08-10T07:57:31.945Z</time>
      </trkpt>
      <trkpt lat="45.43896" lon="5.68603">
        <ele>881</ele>
        <time>2013-08-10T07:57:36.937Z</time>
      </trkpt>
      <trkpt lat="45.43883" lon="5.68587">
        <ele>883</ele>
        <time>2013-08-10T07:57:41.939Z</time>
      </trkpt>
      <trkpt lat="45.43871" lon="5.68569">
        <ele>883</ele>
        <time>2013-08-10T07:57:46.939Z</time>
      </trkpt>
      <trkpt lat="45.43859" lon="5.68553">
        <ele>884</ele>
        <time>2013-08-10T07:57:51.948Z</time>
      </trkpt>
      <trkpt lat="45.43848" lon="5.68535">
        <ele>885</ele>
        <time>2013-08-10T07:57:56.944Z</time>
      </trkpt>
      <trkpt lat="45.43719" lon="5.68394">
        <ele>892</ele>
        <time>2013-08-10T07:58:42.236Z</time>
      </trkpt>
      <trkpt lat="45.43686" lon="5.68373">
        <ele>894</ele>
        <time>2013-08-10T07:58:51.950Z</time>
      </trkpt>
      <trkpt lat="45.43669" lon="5.68362">
        <ele>894</ele>
        <time>2013-08-10T07:58:56.940Z</time>
      </trkpt>
      <trkpt lat="45.43653" lon="5.6835">
        <ele>895</ele>
        <time>2013-08-10T07:59:02.268Z</time>
      </trkpt>
      <trkpt lat="45.43635" lon="5.68339">
        <ele>896</ele>
        <time>2013-08-10T07:59:06.941Z</time>
      </trkpt>
      <trkpt lat="45.43619" lon="5.68327">
        <ele>897</ele>
        <time>2013-08-10T07:59:11.941Z</time>
      </trkpt>
      <trkpt lat="45.43602" lon="5.68316">
        <ele>898</ele>
        <time>2013-08-10T07:59:16.943Z</time>
      </trkpt>
      <trkpt lat="45.43584" lon="5.68305">
        <ele>900</ele>
        <time>2013-08-10T07:59:21.943Z</time>
      </trkpt>
      <trkpt lat="45.43566" lon="5.6829">
        <ele>901</ele>
        <time>2013-08-10T07:59:26.933Z</time>
      </trkpt>
      <trkpt lat="45.43548" lon="5.68275">
        <ele>902</ele>
        <time>2013-08-10T07:59:31.936Z</time>
      </trkpt>
      <trkpt lat="45.43532" lon="5.68259">
        <ele>903</ele>
        <time>2013-08-10T07:59:36.938Z</time>
      </trkpt>
      <trkpt lat="45.43516" lon="5.68249">
        <ele>904</ele>
        <time>2013-08-10T07:59:41.939Z</time>
      </trkpt>
      <trkpt lat="45.43499" lon="5.68241">
        <ele>905</ele>
        <time>2013-08-10T07:59:46.956Z</time>
      </trkpt>
      <trkpt lat="45.43479" lon="5.68233">
        <ele>907</ele>
        <time>2013-08-10T07:59:51.951Z</time>
      </trkpt>
      <trkpt lat="45.43461" lon="5.68224">
        <ele>908</ele>
        <time>2013-08-10T07:59:56.938Z</time>
      </trkpt>
      <trkpt lat="45.43311" lon="5.68068">
        <ele>917</ele>
        <time>2013-08-10T08:00:46.933Z</time>
      </trkpt>
      <trkpt lat="45.43304" lon="5.68041">
        <ele>918</ele>
        <time>2013-08-10T08:00:51.944Z</time>
      </trkpt>
      <trkpt lat="45.43301" lon="5.68014">
        <ele>919</ele>
        <time>2013-08-10T08:00:56.933Z</time>
      </trkpt>
      <trkpt lat="45.43299" lon="5.67987">
        <ele>921</ele>
        <time>2013-08-10T08:01:01.965Z</time>
      </trkpt>
      <trkpt lat="45.43302" lon="5.67961">
        <ele>921</ele>
        <time>2013-08-10T08:01:06.934Z</time>
      </trkpt>
      <trkpt lat="45.43305" lon="5.67933">
        <ele>922</ele>
        <time>2013-08-10T08:01:11.933Z</time>
      </trkpt>
      <trkpt lat="45.43307" lon="5.67907">
        <ele>924</ele>
        <time>2013-08-10T08:01:16.932Z</time>
      </trkpt>
      <trkpt lat="45.43307" lon="5.67883">
        <ele>925</ele>
        <time>2013-08-10T08:01:21.942Z</time>
      </trkpt>
      <trkpt lat="45.43306" lon="5.67871">
        <ele>926</ele>
        <time>2013-08-10T08:01:26.930Z</time>
      </trkpt>
      <trkpt lat="45.43307" lon="5.67863">
        <ele>926</ele>
        <time>2013-08-10T08:01:31.935Z</time>
      </trkpt>
      <trkpt lat="45.43309" lon="5.67857">
        <ele>926</ele>
        <time>2013-08-10T08:01:36.934Z</time>
      </trkpt>
      <trkpt lat="45.43305" lon="5.67853">
        <ele>926</ele>
        <time>2013-08-10T08:01:41.933Z</time>
      </trkpt>
      <trkpt lat="45.43307" lon="5.67861">
        <ele>926</ele>
        <time>2013-08-10T08:01:46.935Z</time>
      </trkpt>
      <trkpt lat="45.43309" lon="5.67868">
        <ele>926</ele>
        <time>2013-08-10T08:01:51.947Z</time>
      </trkpt>
      <trkpt lat="45.4331" lon="5.67873">
        <ele>925</ele>
        <time>2013-08-10T08:01:56.934Z</time>
      </trkpt>
      <trkpt lat="45.43312" lon="5.67879">
        <ele>924</ele>
        <time>2013-08-10T08:02:01.933Z</time>
      </trkpt>
      <trkpt lat="45.43315" lon="5.67878">
        <ele>924</ele>
        <time>2013-08-10T08:02:06.933Z</time>
      </trkpt>
      <trkpt lat="45.43312" lon="5.67866">
        <ele>924</ele>
        <time>2013-08-10T08:02:11.935Z</time>
      </trkpt>
      <trkpt lat="45.43311" lon="5.67853">
        <ele>924</ele>
        <time>2013-08-10T08:02:16.930Z</time>
      </trkpt>
      <trkpt lat="45.43311" lon="5.67842">
        <ele>923</ele>
        <time>2013-08-10T08:02:21.943Z</time>
      </trkpt>
      <trkpt lat="45.43309" lon="5.67838">
        <ele>923</ele>
        <time>2013-08-10T08:02:26.933Z</time>
      </trkpt>
      <trkpt lat="45.43311" lon="5.67848">
        <ele>923</ele>
        <time>2013-08-10T08:02:31.934Z</time>
      </trkpt>
      <trkpt lat="45.43311" lon="5.67859">
        <ele>922</ele>
        <time>2013-08-10T08:02:36.934Z</time>
      </trkpt>
      <trkpt lat="45.43311" lon="5.67868">
        <ele>921</ele>
        <time>2013-08-10T08:02:41.930Z</time>
      </trkpt>
      <trkpt lat="45.43315" lon="5.67873">
        <ele>921</ele>
        <time>2013-08-10T08:02:46.934Z</time>
      </trkpt>
      <trkpt lat="45.43311" lon="5.67874">
        <ele>922</ele>
        <time>2013-08-10T08:02:51.945Z</time>
      </trkpt>
      <trkpt lat="45.43312" lon="5.67882">
        <ele>923</ele>
        <time>2013-08-10T08:02:56.933Z</time>
      </trkpt>
      <trkpt lat="45.43312" lon="5.6788">
        <ele>923</ele>
        <time>2013-08-10T08:03:01.930Z</time>
      </trkpt>
      <trkpt lat="45.43313" lon="5.67871">
        <ele>923</ele>
        <time>2013-08-10T08:03:06.934Z</time>
      </trkpt>
      <trkpt lat="45.43308" lon="5.67873">
        <ele>923</ele>
        <time>2013-08-10T08:03:11.931Z</time>
      </trkpt>
      <trkpt lat="45.4331" lon="5.67876">
        <ele>922</ele>
        <time>2013-08-10T08:03:16.934Z</time>
      </trkpt>
      <trkpt lat="45.43311" lon="5.67876">
        <ele>922</ele>
        <time>2013-08-10T08:03:21.942Z</time>
      </trkpt>
      <trkpt lat="45.43311" lon="5.67876">
        <ele>922</ele>
        <time>2013-08-10T08:03:26.934Z</time>
      </trkpt>
      <trkpt lat="45.43311" lon="5.67877">
        <ele>922</ele>
        <time>2013-08-10T08:03:31.941Z</time>
      </trkpt>
      <trkpt lat="45.43312" lon="5.67878">
        <ele>923</ele>
        <time>2013-08-10T08:03:36.941Z</time>
      </trkpt>
      <trkpt lat="45.43312" lon="5.67878">
        <ele>923</ele>
        <time>2013-08-10T08:03:41.937Z</time>
      </trkpt>
      <trkpt lat="45.43313" lon="5.67878">
        <ele>923</ele>
        <time>2013-08-10T08:03:46.939Z</time>
      </trkpt>
      <trkpt lat="45.43313" lon="5.67878">
        <ele>923</ele>
        <time>2013-08-10T08:03:51.956Z</time>
      </trkpt>
      <trkpt lat="45.43315" lon="5.67876">
        <ele>925</ele>
        <time>2013-08-10T08:04:47.044Z</time>
      </trkpt>
      <trkpt lat="45.43315" lon="5.67876">
        <ele>926</ele>
        <time>2013-08-10T08:04:52.030Z</time>
      </trkpt>
      <trkpt lat="45.43315" lon="5.67875">
        <ele>925</ele>
        <time>2013-08-10T08:04:57.037Z</time>
      </trkpt>
      <trkpt lat="45.43315" lon="5.67875">
        <ele>925</ele>
        <time>2013-08-10T08:05:02.025Z</time>
      </trkpt>
      <trkpt lat="45.43316" lon="5.67876">
        <ele>926</ele>
        <time>2013-08-10T08:05:07.033Z</time>
      </trkpt>
      <trkpt lat="45.43314" lon="5.67887">
        <ele>925</ele>
        <time>2013-08-10T08:05:12.030Z</time>
      </trkpt>
      <trkpt lat="45.43312" lon="5.67899">
        <ele>925</ele>
        <time>2013-08-10T08:05:17.033Z</time>
      </trkpt>
      <trkpt lat="45.43312" lon="5.67925">
        <ele>925</ele>
        <time>2013-08-10T08:05:22.026Z</time>
      </trkpt>
      <trkpt lat="45.43311" lon="5.67973">
        <ele>924</ele>
        <time>2013-08-10T08:05:32.040Z</time>
      </trkpt>
      <trkpt lat="45.43312" lon="5.67991">
        <ele>925</ele>
        <time>2013-08-10T08:05:37.041Z</time>
      </trkpt>
      <trkpt lat="45.43312" lon="5.68016">
        <ele>926</ele>
        <time>2013-08-10T08:05:42.039Z</time>
      </trkpt>
      <trkpt lat="45.43324" lon="5.68058">
        <ele>924</ele>
        <time>2013-08-10T08:05:47.037Z</time>
      </trkpt>
      <trkpt lat="45.43337" lon="5.68104">
        <ele>923</ele>
        <time>2013-08-10T08:05:52.038Z</time>
      </trkpt>
      <trkpt lat="45.43364" lon="5.68137">
        <ele>919</ele>
        <time>2013-08-10T08:05:57.051Z</time>
      </trkpt>
      <trkpt lat="45.43708" lon="5.68386">
        <ele>904</ele>
        <time>2013-08-10T08:06:42.047Z</time>
      </trkpt>
      <trkpt lat="45.43742" lon="5.68412">
        <ele>900</ele>
        <time>2013-08-10T08:06:47.044Z</time>
      </trkpt>
      <trkpt lat="45.43776" lon="5.68444">
        <ele>898</ele>
        <time>2013-08-10T08:06:52.042Z</time>
      </trkpt>
      <trkpt lat="45.43811" lon="5.68483">
        <ele>896</ele>
        <time>2013-08-10T08:06:57.055Z</time>
      </trkpt>
      <trkpt lat="45.43846" lon="5.68529">
        <ele>894</ele>
        <time>2013-08-10T08:07:02.042Z</time>
      </trkpt>
      <trkpt lat="45.43877" lon="5.68577">
        <ele>893</ele>
        <time>2013-08-10T08:07:07.038Z</time>
      </trkpt>
      <trkpt lat="45.43913" lon="5.68623">
        <ele>892</ele>
        <time>2013-08-10T08:07:12.040Z</time>
      </trkpt>
      <trkpt lat="45.43945" lon="5.68672">
        <ele>888</ele>
        <time>2013-08-10T08:07:17.041Z</time>
      </trkpt>
      <trkpt lat="45.43977" lon="5.68718">
        <ele>885</ele>
        <time>2013-08-10T08:07:22.040Z</time>
      </trkpt>
      <trkpt lat="45.44004" lon="5.68775">
        <ele>883</ele>
        <time>2013-08-10T08:07:27.046Z</time>
      </trkpt>
      <trkpt lat="45.43993" lon="5.68841">
        <ele>880</ele>
        <time>2013-08-10T08:07:32.044Z</time>
      </trkpt>
      <trkpt lat="45.43948" lon="5.6887">
        <ele>877</ele>
        <time>2013-08-10T08:07:37.046Z</time>
      </trkpt>
      <trkpt lat="45.43904" lon="5.68892">
        <ele>876</ele>
        <time>2013-08-10T08:07:42.042Z</time>
      </trkpt>
      <trkpt lat="45.43863" lon="5.68916">
        <ele>875</ele>
        <time>2013-08-10T08:07:47.045Z</time>
      </trkpt>
      <trkpt lat="45.43842" lon="5.68971">
        <ele>873</ele>
        <time>2013-08-10T08:07:52.037Z</time>
      </trkpt>
      <trkpt lat="45.43836" lon="5.69039">
        <ele>872</ele>
        <time>2013-08-10T08:07:57.055Z</time>
      </trkpt>
      <trkpt lat="45.4383" lon="5.69107">
        <ele>868</ele>
        <time>2013-08-10T08:08:02.148Z</time>
      </trkpt>
      <trkpt lat="45.43824" lon="5.69177">
        <ele>865</ele>
        <time>2013-08-10T08:08:07.045Z</time>
      </trkpt>
      <trkpt lat="45.43817" lon="5.69242">
        <ele>862</ele>
        <time>2013-08-10T08:08:12.039Z</time>
      </trkpt>
      <trkpt lat="45.43811" lon="5.69303">
        <ele>861</ele>
        <time>2013-08-10T08:08:17.038Z</time>
      </trkpt>
      <trkpt lat="45.43828" lon="5.69356">
        <ele>860</ele>
        <time>2013-08-10T08:08:22.027Z</time>
      </trkpt>
      <trkpt lat="45.43929" lon="5.69403">
        <ele>857</ele>
        <time>2013-08-10T08:08:32.028Z</time>
      </trkpt>
      <trkpt lat="45.43981" lon="5.6943">
        <ele>856</ele>
        <time>2013-08-10T08:08:37.031Z</time>
      </trkpt>
      <trkpt lat="45.4403" lon="5.69461">
        <ele>853</ele>
        <time>2013-08-10T08:08:42.040Z</time>
      </trkpt>
      <trkpt lat="45.44082" lon="5.69478">
        <ele>851</ele>
        <time>2013-08-10T08:08:47.036Z</time>
      </trkpt>
      <trkpt lat="45.44136" lon="5.6949">
        <ele>845</ele>
        <time>2013-08-10T08:08:52.036Z</time>
      </trkpt>
      <trkpt lat="45.44189" lon="5.69519">
        <ele>841</ele>
        <time>2013-08-10T08:08:57.046Z</time>
      </trkpt>
      <trkpt lat="45.44235" lon="5.69563">
        <ele>838</ele>
        <time>2013-08-10T08:09:02.029Z</time>
      </trkpt>
      <trkpt lat="45.44282" lon="5.69605">
        <ele>836</ele>
        <time>2013-08-10T08:09:07.034Z</time>
      </trkpt>
      <trkpt lat="45.4433" lon="5.69653">
        <ele>831</ele>
        <time>2013-08-10T08:09:12.043Z</time>
      </trkpt>
      <trkpt lat="45.44352" lon="5.69727">
        <ele>821</ele>
        <time>2013-08-10T08:09:17.042Z</time>
      </trkpt>
      <trkpt lat="45.44368" lon="5.69801">
        <ele>814</ele>
        <time>2013-08-10T08:09:22.037Z</time>
      </trkpt>
      <trkpt lat="45.44385" lon="5.69874">
        <ele>808</ele>
        <time>2013-08-10T08:09:27.046Z</time>
      </trkpt>
      <trkpt lat="45.44407" lon="5.69941">
        <ele>804</ele>
        <time>2013-08-10T08:09:32.042Z</time>
      </trkpt>
      <trkpt lat="45.4445" lon="5.6998">
        <ele>799</ele>
        <time>2013-08-10T08:09:37.030Z</time>
      </trkpt>
      <trkpt lat="45.44497" lon="5.70017">
        <ele>796</ele>
        <time>2013-08-10T08:09:42.034Z</time>
      </trkpt>
      <trkpt lat="45.4454" lon="5.70044">
        <ele>790</ele>
        <time>2013-08-10T08:09:47.036Z</time>
      </trkpt>
      <trkpt lat="45.44577" lon="5.70057">
        <ele>788</ele>
        <time>2013-08-10T08:09:52.038Z</time>
      </trkpt>
      <trkpt lat="45.44567" lon="5.70098">
        <ele>786</ele>
        <time>2013-08-10T08:09:57.044Z</time>
      </trkpt>
      <trkpt lat="45.44176" lon="5.70428">
        <ele>747</ele>
        <time>2013-08-10T08:10:42.679Z</time>
      </trkpt>
      <trkpt lat="45.44193" lon="5.70576">
        <ele>739</ele>
        <time>2013-08-10T08:10:52.039Z</time>
      </trkpt>
      <trkpt lat="45.44216" lon="5.70644">
        <ele>735</ele>
        <time>2013-08-10T08:10:57.046Z</time>
      </trkpt>
      <trkpt lat="45.44196" lon="5.70711">
        <ele>730</ele>
        <time>2013-08-10T08:11:02.374Z</time>
      </trkpt>
      <trkpt lat="45.44138" lon="5.70714">
        <ele>724</ele>
        <time>2013-08-10T08:11:07.037Z</time>
      </trkpt>
      <trkpt lat="45.44081" lon="5.70727">
        <ele>718</ele>
        <time>2013-08-10T08:11:12.041Z</time>
      </trkpt>
      <trkpt lat="45.44022" lon="5.70743">
        <ele>715</ele>
        <time>2013-08-10T08:11:17.040Z</time>
      </trkpt>
      <trkpt lat="45.43961" lon="5.70752">
        <ele>709</ele>
        <time>2013-08-10T08:11:22.042Z</time>
      </trkpt>
      <trkpt lat="45.43905" lon="5.70784">
        <ele>704</ele>
        <time>2013-08-10T08:11:27.048Z</time>
      </trkpt>
      <trkpt lat="45.43853" lon="5.70818">
        <ele>700</ele>
        <time>2013-08-10T08:11:32.037Z</time>
      </trkpt>
      <trkpt lat="45.43796" lon="5.70823">
        <ele>697</ele>
        <time>2013-08-10T08:11:37.032Z</time>
      </trkpt>
      <trkpt lat="45.4374" lon="5.70823">
        <ele>694</ele>
        <time>2013-08-10T08:11:42.030Z</time>
      </trkpt>
      <trkpt lat="45.43684" lon="5.70817">
        <ele>691</ele>
        <time>2013-08-10T08:11:47.023Z</time>
      </trkpt>
      <trkpt lat="45.43629" lon="5.70834">
        <ele>689</ele>
        <time>2013-08-10T08:11:52.028Z</time>
      </trkpt>
      <trkpt lat="45.43579" lon="5.70879">
        <ele>686</ele>
        <time>2013-08-10T08:11:57.055Z</time>
      </trkpt>
      <trkpt lat="45.43269" lon="5.70972">
        <ele>665</ele>
        <time>2013-08-10T08:12:42.238Z</time>
      </trkpt>
      <trkpt lat="45.43238" lon="5.70953">
        <ele>665</ele>
        <time>2013-08-10T08:12:52.045Z</time>
      </trkpt>
      <trkpt lat="45.4322" lon="5.70932">
        <ele>664</ele>
        <time>2013-08-10T08:12:57.055Z</time>
      </trkpt>
      <trkpt lat="45.432" lon="5.70912">
        <ele>664</ele>
        <time>2013-08-10T08:13:02.043Z</time>
      </trkpt>
      <trkpt lat="45.43177" lon="5.70894">
        <ele>664</ele>
        <time>2013-08-10T08:13:07.042Z</time>
      </trkpt>
      <trkpt lat="45.43153" lon="5.70883">
        <ele>665</ele>
        <time>2013-08-10T08:13:12.040Z</time>
      </trkpt>
      <trkpt lat="45.43134" lon="5.7087">
        <ele>666</ele>
        <time>2013-08-10T08:13:17.036Z</time>
      </trkpt>
      <trkpt lat="45.43115" lon="5.70857">
        <ele>665</ele>
        <time>2013-08-10T08:13:22.036Z</time>
      </trkpt>
      <trkpt lat="45.43093" lon="5.70851">
        <ele>664</ele>
        <time>2013-08-10T08:13:27.048Z</time>
      </trkpt>
      <trkpt lat="45.43072" lon="5.70854">
        <ele>664</ele>
        <time>2013-08-10T08:13:32.038Z</time>
      </trkpt>
      <trkpt lat="45.43053" lon="5.70851">
        <ele>666</ele>
        <time>2013-08-10T08:13:37.044Z</time>
      </trkpt>
      <trkpt lat="45.4303" lon="5.70841">
        <ele>664</ele>
        <time>2013-08-10T08:13:42.040Z</time>
      </trkpt>
      <trkpt lat="45.43007" lon="5.70836">
        <ele>662</ele>
        <time>2013-08-10T08:13:47.034Z</time>
      </trkpt>
      <trkpt lat="45.42977" lon="5.70826">
        <ele>662</ele>
        <time>2013-08-10T08:13:52.039Z</time>
      </trkpt>
      <trkpt lat="45.42947" lon="5.70819">
        <ele>661</ele>
        <time>2013-08-10T08:13:57.049Z</time>
      </trkpt>
      <trkpt lat="45.42916" lon="5.70811">
        <ele>662</ele>
        <time>2013-08-10T08:14:02.447Z</time>
      </trkpt>
      <trkpt lat="45.42891" lon="5.70797">
        <ele>661</ele>
        <time>2013-08-10T08:14:07.046Z</time>
      </trkpt>
      <trkpt lat="45.42872" lon="5.70767">
        <ele>658</ele>
        <time>2013-08-10T08:14:12.033Z</time>
      </trkpt>
      <trkpt lat="45.42849" lon="5.70745">
        <ele>657</ele>
        <time>2013-08-10T08:14:17.034Z</time>
      </trkpt>
      <trkpt lat="45.42819" lon="5.70735">
        <ele>657</ele>
        <time>2013-08-10T08:14:22.037Z</time>
      </trkpt>
      <trkpt lat="45.4278" lon="5.70731">
        <ele>658</ele>
        <time>2013-08-10T08:14:27.042Z</time>
      </trkpt>
      <trkpt lat="45.42746" lon="5.70722">
        <ele>656</ele>
        <time>2013-08-10T08:14:32.036Z</time>
      </trkpt>
      <trkpt lat="45.42719" lon="5.70717">
        <ele>653</ele>
        <time>2013-08-10T08:14:37.032Z</time>
      </trkpt>
      <trkpt lat="45.42731" lon="5.70741">
        <ele>649</ele>
        <time>2013-08-10T08:14:42.040Z</time>
      </trkpt>
      <trkpt lat="45.42754" lon="5.70756">
        <ele>646</ele>
        <time>2013-08-10T08:14:47.044Z</time>
      </trkpt>
      <trkpt lat="45.42775" lon="5.70772">
        <ele>645</ele>
        <time>2013-08-10T08:14:52.041Z</time>
      </trkpt>
      <trkpt lat="45.42794" lon="5.70801">
        <ele>645</ele>
        <time>2013-08-10T08:14:57.047Z</time>
      </trkpt>
      <trkpt lat="45.42815" lon="5.70825">
        <ele>644</ele>
        <time>2013-08-10T08:15:02.039Z</time>
      </trkpt>
      <trkpt lat="45.42831" lon="5.7084">
        <ele>643</ele>
        <time>2013-08-10T08:15:07.161Z</time>
      </trkpt>
      <trkpt lat="45.42838" lon="5.70853">
        <ele>643</ele>
        <time>2013-08-10T08:15:12.038Z</time>
      </trkpt>
      <trkpt lat="45.42847" lon="5.70872">
        <ele>643</ele>
        <time>2013-08-10T08:15:17.032Z</time>
      </trkpt>
      <trkpt lat="45.4287" lon="5.709">
        <ele>643</ele>
        <time>2013-08-10T08:15:22.034Z</time>
      </trkpt>
      <trkpt lat="45.42893" lon="5.70939">
        <ele>642</ele>
        <time>2013-08-10T08:15:27.046Z</time>
      </trkpt>
      <trkpt lat="45.42921" lon="5.70979">
        <ele>640</ele>
        <time>2013-08-10T08:15:32.038Z</time>
      </trkpt>
      <trkpt lat="45.4296" lon="5.71006">
        <ele>639</ele>
        <time>2013-08-10T08:15:37.029Z</time>
      </trkpt>
      <trkpt lat="45.42996" lon="5.71045">
        <ele>637</ele>
        <time>2013-08-10T08:15:42.035Z</time>
      </trkpt>
      <trkpt lat="45.43026" lon="5.71101">
        <ele>636</ele>
        <time>2013-08-10T08:15:47.036Z</time>
      </trkpt>
      <trkpt lat="45.43054" lon="5.71155">
        <ele>631</ele>
        <time>2013-08-10T08:15:52.036Z</time>
      </trkpt>
      <trkpt lat="45.42936" lon="5.71459">
        <ele>598</ele>
        <time>2013-08-10T08:16:42.680Z</time>
      </trkpt>
      <trkpt lat="45.42993" lon="5.71567">
        <ele>591</ele>
        <time>2013-08-10T08:16:52.030Z</time>
      </trkpt>
      <trkpt lat="45.43038" lon="5.71583">
        <ele>591</ele>
        <time>2013-08-10T08:16:57.035Z</time>
      </trkpt>
      <trkpt lat="45.43086" lon="5.71607">
        <ele>591</ele>
        <time>2013-08-10T08:17:02.028Z</time>
      </trkpt>
      <trkpt lat="45.43106" lon="5.71669">
        <ele>587</ele>
        <time>2013-08-10T08:17:07.038Z</time>
      </trkpt>
      <trkpt lat="45.43125" lon="5.71748">
        <ele>581</ele>
        <time>2013-08-10T08:17:12.034Z</time>
      </trkpt>
      <trkpt lat="45.43161" lon="5.71801">
        <ele>574</ele>
        <time>2013-08-10T08:17:17.039Z</time>
      </trkpt>
      <trkpt lat="45.43202" lon="5.71844">
        <ele>569</ele>
        <time>2013-08-10T08:17:22.033Z</time>
      </trkpt>
      <trkpt lat="45.4324" lon="5.71892">
        <ele>566</ele>
        <time>2013-08-10T08:17:27.045Z</time>
      </trkpt>
      <trkpt lat="45.43284" lon="5.71932">
        <ele>562</ele>
        <time>2013-08-10T08:17:32.034Z</time>
      </trkpt>
      <trkpt lat="45.43325" lon="5.71976">
        <ele>558</ele>
        <time>2013-08-10T08:17:37.031Z</time>
      </trkpt>
      <trkpt lat="45.43336" lon="5.7204">
        <ele>555</ele>
        <time>2013-08-10T08:17:42.037Z</time>
      </trkpt>
      <trkpt lat="45.43329" lon="5.72122">
        <ele>550</ele>
        <time>2013-08-10T08:17:47.038Z</time>
      </trkpt>
      <trkpt lat="45.43328" lon="5.72198">
        <ele>546</ele>
        <time>2013-08-10T08:17:52.034Z</time>
      </trkpt>
      <trkpt lat="45.43332" lon="5.72265">
        <ele>539</ele>
        <time>2013-08-10T08:17:57.035Z</time>
      </trkpt>
      <trkpt lat="45.43646" lon="5.72565">
        <ele>507</ele>
        <time>2013-08-10T08:18:42.026Z</time>
      </trkpt>
      <trkpt lat="45.43608" lon="5.72578">
        <ele>503</ele>
        <time>2013-08-10T08:18:47.036Z</time>
      </trkpt>
      <trkpt lat="45.43572" lon="5.72682">
        <ele>492</ele>
        <time>2013-08-10T08:18:57.044Z</time>
      </trkpt>
      <trkpt lat="45.43572" lon="5.72682">
        <ele>492</ele>
        <time>2013-08-10T08:18:57.044Z</time>
      </trkpt>
      <trkpt lat="45.43642" lon="5.72785">
        <ele>486</ele>
        <time>2013-08-10T08:19:07.042Z</time>
      </trkpt>
      <trkpt lat="45.43644" lon="5.72857">
        <ele>484</ele>
        <time>2013-08-10T08:19:12.040Z</time>
      </trkpt>
      <trkpt lat="45.43632" lon="5.72935">
        <ele>481</ele>
        <time>2013-08-10T08:19:17.043Z</time>
      </trkpt>
      <trkpt lat="45.43627" lon="5.73014">
        <ele>477</ele>
        <time>2013-08-10T08:19:22.020Z</time>
      </trkpt>
      <trkpt lat="45.43626" lon="5.73089">
        <ele>474</ele>
        <time>2013-08-10T08:19:27.044Z</time>
      </trkpt>
      <trkpt lat="45.43633" lon="5.73172">
        <ele>470</ele>
        <time>2013-08-10T08:19:32.042Z</time>
      </trkpt>
      <trkpt lat="45.43642" lon="5.73257">
        <ele>466</ele>
        <time>2013-08-10T08:19:37.038Z</time>
      </trkpt>
      <trkpt lat="45.43644" lon="5.7333">
        <ele>460</ele>
        <time>2013-08-10T08:19:42.036Z</time>
      </trkpt>
      <trkpt lat="45.43663" lon="5.73385">
        <ele>456</ele>
        <time>2013-08-10T08:19:47.034Z</time>
      </trkpt>
      <trkpt lat="45.437" lon="5.73432">
        <ele>451</ele>
        <time>2013-08-10T08:19:52.025Z</time>
      </trkpt>
      <trkpt lat="45.43736" lon="5.73482">
        <ele>450</ele>
        <time>2013-08-10T08:19:57.026Z</time>
      </trkpt>
      <trkpt lat="45.43746" lon="5.73933">
        <ele>443</ele>
        <time>2013-08-10T08:20:42.109Z</time>
      </trkpt>
      <trkpt lat="45.43689" lon="5.73943">
        <ele>441</ele>
        <time>2013-08-10T08:20:52.045Z</time>
      </trkpt>
      <trkpt lat="45.43664" lon="5.73954">
        <ele>440</ele>
        <time>2013-08-10T08:20:57.052Z</time>
      </trkpt>
      <trkpt lat="45.43642" lon="5.7396">
        <ele>441</ele>
        <time>2013-08-10T08:21:02.230Z</time>
      </trkpt>
      <trkpt lat="45.43612" lon="5.7397">
        <ele>440</ele>
        <time>2013-08-10T08:21:07.034Z</time>
      </trkpt>
      <trkpt lat="45.43583" lon="5.7398">
        <ele>439</ele>
        <time>2013-08-10T08:21:12.043Z</time>
      </trkpt>
      <trkpt lat="45.43554" lon="5.73993">
        <ele>438</ele>
        <time>2013-08-10T08:21:17.042Z</time>
      </trkpt>
      <trkpt lat="45.43527" lon="5.74008">
        <ele>436</ele>
        <time>2013-08-10T08:21:22.045Z</time>
      </trkpt>
      <trkpt lat="45.43499" lon="5.74027">
        <ele>435</ele>
        <time>2013-08-10T08:21:27.044Z</time>
      </trkpt>
      <trkpt lat="45.43472" lon="5.74047">
        <ele>435</ele>
        <time>2013-08-10T08:21:32.038Z</time>
      </trkpt>
      <trkpt lat="45.43447" lon="5.74071">
        <ele>435</ele>
        <time>2013-08-10T08:21:37.036Z</time>
      </trkpt>
      <trkpt lat="45.43425" lon="5.74102">
        <ele>436</ele>
        <time>2013-08-10T08:21:42.039Z</time>
      </trkpt>
      <trkpt lat="45.43414" lon="5.74116">
        <ele>436</ele>
        <time>2013-08-10T08:21:47.037Z</time>
      </trkpt>
      <trkpt lat="45.43389" lon="5.74153">
        <ele>435</ele>
        <time>2013-08-10T08:21:52.037Z</time>
      </trkpt>
      <trkpt lat="45.43368" lon="5.74187">
        <ele>435</ele>
        <time>2013-08-10T08:21:57.046Z</time>
      </trkpt>
      <trkpt lat="45.43358" lon="5.74218">
        <ele>434</ele>
        <time>2013-08-10T08:22:02.037Z</time>
      </trkpt>
      <trkpt lat="45.43356" lon="5.74255">
        <ele>434</ele>
        <time>2013-08-10T08:22:07.038Z</time>
      </trkpt>
      <trkpt lat="45.43356" lon="5.74292">
        <ele>432</ele>
        <time>2013-08-10T08:22:12.034Z</time>
      </trkpt>
      <trkpt lat="45.43356" lon="5.74332">
        <ele>432</ele>
        <time>2013-08-10T08:22:17.037Z</time>
      </trkpt>
      <trkpt lat="45.43354" lon="5.74375">
        <ele>431</ele>
        <time>2013-08-10T08:22:22.034Z</time>
      </trkpt>
      <trkpt lat="45.43356" lon="5.74417">
        <ele>431</ele>
        <time>2013-08-10T08:22:27.044Z</time>
      </trkpt>
      <trkpt lat="45.43355" lon="5.74459">
        <ele>431</ele>
        <time>2013-08-10T08:22:32.038Z</time>
      </trkpt>
      <trkpt lat="45.43354" lon="5.74503">
        <ele>431</ele>
        <time>2013-08-10T08:22:37.034Z</time>
      </trkpt>
      <trkpt lat="45.43354" lon="5.7454">
        <ele>432</ele>
        <time>2013-08-10T08:22:42.038Z</time>
      </trkpt>
      <trkpt lat="45.43355" lon="5.74577">
        <ele>432</ele>
        <time>2013-08-10T08:22:47.041Z</time>
      </trkpt>
      <trkpt lat="45.43357" lon="5.74612">
        <ele>431</ele>
        <time>2013-08-10T08:22:52.041Z</time>
      </trkpt>
      <trkpt lat="45.43358" lon="5.74648">
        <ele>429</ele>
        <time>2013-08-10T08:22:57.047Z</time>
      </trkpt>
      <trkpt lat="45.43357" lon="5.74687">
        <ele>429</ele>
        <time>2013-08-10T08:23:02.034Z</time>
      </trkpt>
      <trkpt lat="45.43356" lon="5.74724">
        <ele>429</ele>
        <time>2013-08-10T08:23:07.036Z</time>
      </trkpt>
      <trkpt lat="45.43354" lon="5.7476">
        <ele>430</ele>
        <time>2013-08-10T08:23:12.038Z</time>
      </trkpt>
      <trkpt lat="45.43355" lon="5.74794">
        <ele>430</ele>
        <time>2013-08-10T08:23:17.034Z</time>
      </trkpt>
      <trkpt lat="45.43353" lon="5.74832">
        <ele>430</ele>
        <time>2013-08-10T08:23:22.042Z</time>
      </trkpt>
      <trkpt lat="45.43354" lon="5.74863">
        <ele>430</ele>
        <time>2013-08-10T08:23:27.040Z</time>
      </trkpt>
      <trkpt lat="45.43355" lon="5.74895">
        <ele>431</ele>
        <time>2013-08-10T08:23:32.037Z</time>
      </trkpt>
      <trkpt lat="45.43355" lon="5.7493">
        <ele>430</ele>
        <time>2013-08-10T08:23:37.037Z</time>
      </trkpt>
      <trkpt lat="45.43358" lon="5.74964">
        <ele>431</ele>
        <time>2013-08-10T08:23:42.039Z</time>
      </trkpt>
      <trkpt lat="45.43355" lon="5.75002">
        <ele>432</ele>
        <time>2013-08-10T08:23:47.038Z</time>
      </trkpt>
      <trkpt lat="45.43349" lon="5.75036">
        <ele>432</ele>
        <time>2013-08-10T08:23:52.040Z</time>
      </trkpt>
      <trkpt lat="45.43229" lon="5.75141">
        <ele>440</ele>
        <time>2013-08-10T08:24:42.039Z</time>
      </trkpt>
      <trkpt lat="45.43212" lon="5.75133">
        <ele>441</ele>
        <time>2013-08-10T08:24:47.038Z</time>
      </trkpt>
      <trkpt lat="45.43193" lon="5.75118">
        <ele>442</ele>
        <time>2013-08-10T08:24:52.042Z</time>
      </trkpt>
      <trkpt lat="45.43172" lon="5.75105">
        <ele>441</ele>
        <time>2013-08-10T08:24:57.041Z</time>
      </trkpt>
      <trkpt lat="45.4314" lon="5.75062">
        <ele>441</ele>
        <time>2013-08-10T08:25:07.038Z</time>
      </trkpt>
      <trkpt lat="45.43128" lon="5.7503">
        <ele>441</ele>
        <time>2013-08-10T08:25:12.039Z</time>
      </trkpt>
      <trkpt lat="45.43113" lon="5.74994">
        <ele>441</ele>
        <time>2013-08-10T08:25:17.040Z</time>
      </trkpt>
      <trkpt lat="45.43099" lon="5.7496">
        <ele>440</ele>
        <time>2013-08-10T08:25:22.045Z</time>
      </trkpt>
      <trkpt lat="45.43083" lon="5.74926">
        <ele>440</ele>
        <time>2013-08-10T08:25:27.052Z</time>
      </trkpt>
      <trkpt lat="45.43069" lon="5.74892">
        <ele>439</ele>
        <time>2013-08-10T08:25:32.038Z</time>
      </trkpt>
      <trkpt lat="45.43055" lon="5.74861">
        <ele>438</ele>
        <time>2013-08-10T08:25:37.040Z</time>
      </trkpt>
      <trkpt lat="45.43042" lon="5.74829">
        <ele>439</ele>
        <time>2013-08-10T08:25:42.038Z</time>
      </trkpt>
      <trkpt lat="45.43027" lon="5.74797">
        <ele>439</ele>
        <time>2013-08-10T08:25:47.021Z</time>
      </trkpt>
      <trkpt lat="45.43013" lon="5.74764">
        <ele>439</ele>
        <time>2013-08-10T08:25:52.025Z</time>
      </trkpt>
      <trkpt lat="45.43003" lon="5.74727">
        <ele>437</ele>
        <time>2013-08-10T08:25:57.046Z</time>
      </trkpt>
      <trkpt lat="45.42989" lon="5.74686">
        <ele>436</ele>
        <time>2013-08-10T08:26:02.029Z</time>
      </trkpt>
      <trkpt lat="45.42974" lon="5.74642">
        <ele>434</ele>
        <time>2013-08-10T08:26:07.036Z</time>
      </trkpt>
      <trkpt lat="45.42953" lon="5.7461">
        <ele>435</ele>
        <time>2013-08-10T08:26:12.034Z</time>
      </trkpt>
      <trkpt lat="45.42925" lon="5.74608">
        <ele>435</ele>
        <time>2013-08-10T08:26:17.029Z</time>
      </trkpt>
      <trkpt lat="45.42898" lon="5.74622">
        <ele>433</ele>
        <time>2013-08-10T08:26:22.030Z</time>
      </trkpt>
      <trkpt lat="45.42865" lon="5.74639">
        <ele>432</ele>
        <time>2013-08-10T08:26:27.039Z</time>
      </trkpt>
      <trkpt lat="45.42832" lon="5.74642">
        <ele>432</ele>
        <time>2013-08-10T08:26:32.026Z</time>
      </trkpt>
      <trkpt lat="45.42802" lon="5.74642">
        <ele>431</ele>
        <time>2013-08-10T08:26:37.028Z</time>
      </trkpt>
      <trkpt lat="45.42774" lon="5.74641">
        <ele>430</ele>
        <time>2013-08-10T08:26:42.031Z</time>
      </trkpt>
      <trkpt lat="45.42747" lon="5.74643">
        <ele>429</ele>
        <time>2013-08-10T08:26:47.029Z</time>
      </trkpt>
      <trkpt lat="45.4272" lon="5.74647">
        <ele>429</ele>
        <time>2013-08-10T08:26:52.032Z</time>
      </trkpt>
      <trkpt lat="45.4269" lon="5.74642">
        <ele>428</ele>
        <time>2013-08-10T08:26:57.030Z</time>
      </trkpt>
      <trkpt lat="45.42663" lon="5.7464">
        <ele>428</ele>
        <time>2013-08-10T08:27:02.015Z</time>
      </trkpt>
      <trkpt lat="45.42606" lon="5.74631">
        <ele>427</ele>
        <time>2013-08-10T08:27:12.030Z</time>
      </trkpt>
      <trkpt lat="45.42575" lon="5.74631">
        <ele>429</ele>
        <time>2013-08-10T08:27:17.030Z</time>
      </trkpt>
      <trkpt lat="45.42547" lon="5.74625">
        <ele>429</ele>
        <time>2013-08-10T08:27:22.027Z</time>
      </trkpt>
      <trkpt lat="45.42518" lon="5.74621">
        <ele>429</ele>
        <time>2013-08-10T08:27:27.030Z</time>
      </trkpt>
      <trkpt lat="45.42494" lon="5.74599">
        <ele>429</ele>
        <time>2013-08-10T08:27:32.029Z</time>
      </trkpt>
      <trkpt lat="45.42469" lon="5.74574">
        <ele>430</ele>
        <time>2013-08-10T08:27:37.032Z</time>
      </trkpt>
      <trkpt lat="45.42447" lon="5.74553">
        <ele>429</ele>
        <time>2013-08-10T08:27:42.031Z</time>
      </trkpt>
      <trkpt lat="45.42426" lon="5.74537">
        <ele>431</ele>
        <time>2013-08-10T08:27:47.029Z</time>
      </trkpt>
      <trkpt lat="45.42404" lon="5.74518">
        <ele>432</ele>
        <time>2013-08-10T08:27:52.045Z</time>
      </trkpt>
      <trkpt lat="45.42385" lon="5.745">
        <ele>433</ele>
        <time>2013-08-10T08:27:57.041Z</time>
      </trkpt>
      <trkpt lat="45.42368" lon="5.74479">
        <ele>431</ele>
        <time>2013-08-10T08:28:02.033Z</time>
      </trkpt>
      <trkpt lat="45.42355" lon="5.74459">
        <ele>431</ele>
        <time>2013-08-10T08:28:07.031Z</time>
      </trkpt>
      <trkpt lat="45.42333" lon="5.74444">
        <ele>433</ele>
        <time>2013-08-10T08:28:12.030Z</time>
      </trkpt>
      <trkpt lat="45.42311" lon="5.7443">
        <ele>434</ele>
        <time>2013-08-10T08:28:17.029Z</time>
      </trkpt>
      <trkpt lat="45.42292" lon="5.7442">
        <ele>435</ele>
        <time>2013-08-10T08:28:22.034Z</time>
      </trkpt>
      <trkpt lat="45.42272" lon="5.74408">
        <ele>436</ele>
        <time>2013-08-10T08:28:27.034Z</time>
      </trkpt>
      <trkpt lat="45.42252" lon="5.74397">
        <ele>437</ele>
        <time>2013-08-10T08:28:32.037Z</time>
      </trkpt>
      <trkpt lat="45.42239" lon="5.74387">
        <ele>439</ele>
        <time>2013-08-10T08:28:37.039Z</time>
      </trkpt>
      <trkpt lat="45.42229" lon="5.7438">
        <ele>441</ele>
        <time>2013-08-10T08:28:42.036Z</time>
      </trkpt>
      <trkpt lat="45.42212" lon="5.74375">
        <ele>441</ele>
        <time>2013-08-10T08:28:47.032Z</time>
      </trkpt>
      <trkpt lat="45.42193" lon="5.74367">
        <ele>441</ele>
        <time>2013-08-10T08:28:52.035Z</time>
      </trkpt>
      <trkpt lat="45.42171" lon="5.74352">
        <ele>441</ele>
        <time>2013-08-10T08:28:57.034Z</time>
      </trkpt>
      <trkpt lat="45.4215" lon="5.74339">
        <ele>441</ele>
        <time>2013-08-10T08:29:02.029Z</time>
      </trkpt>
      <trkpt lat="45.42128" lon="5.74324">
        <ele>441</ele>
        <time>2013-08-10T08:29:07.029Z</time>
      </trkpt>
      <trkpt lat="45.42103" lon="5.74308">
        <ele>440</ele>
        <time>2013-08-10T08:29:12.029Z</time>
      </trkpt>
      <trkpt lat="45.4208" lon="5.74285">
        <ele>440</ele>
        <time>2013-08-10T08:29:17.034Z</time>
      </trkpt>
      <trkpt lat="45.42058" lon="5.74263">
        <ele>440</ele>
        <time>2013-08-10T08:29:22.033Z</time>
      </trkpt>
      <trkpt lat="45.42034" lon="5.74246">
        <ele>440</ele>
        <time>2013-08-10T08:29:27.043Z</time>
      </trkpt>
      <trkpt lat="45.42011" lon="5.74233">
        <ele>441</ele>
        <time>2013-08-10T08:29:32.035Z</time>
      </trkpt>
      <trkpt lat="45.41984" lon="5.74222">
        <ele>443</ele>
        <time>2013-08-10T08:29:37.031Z</time>
      </trkpt>
      <trkpt lat="45.41955" lon="5.74206">
        <ele>444</ele>
        <time>2013-08-10T08:29:42.030Z</time>
      </trkpt>
      <trkpt lat="45.41928" lon="5.74179">
        <ele>445</ele>
        <time>2013-08-10T08:29:47.027Z</time>
      </trkpt>
      <trkpt lat="45.41901" lon="5.74153">
        <ele>444</ele>
        <time>2013-08-10T08:29:52.027Z</time>
      </trkpt>
      <trkpt lat="45.41873" lon="5.74136">
        <ele>443</ele>
        <time>2013-08-10T08:29:57.042Z</time>
      </trkpt>
      <trkpt lat="45.41842" lon="5.74131">
        <ele>444</ele>
        <time>2013-08-10T08:30:02.025Z</time>
      </trkpt>
      <trkpt lat="45.4181" lon="5.74133">
        <ele>446</ele>
        <time>2013-08-10T08:30:07.022Z</time>
      </trkpt>
      <trkpt lat="45.41776" lon="5.74125">
        <ele>447</ele>
        <time>2013-08-10T08:30:12.028Z</time>
      </trkpt>
      <trkpt lat="45.41743" lon="5.74105">
        <ele>449</ele>
        <time>2013-08-10T08:30:17.029Z</time>
      </trkpt>
      <trkpt lat="45.41713" lon="5.74074">
        <ele>451</ele>
        <time>2013-08-10T08:30:22.036Z</time>
      </trkpt>
      <trkpt lat="45.41682" lon="5.74055">
        <ele>452</ele>
        <time>2013-08-10T08:30:27.036Z</time>
      </trkpt>
      <trkpt lat="45.41649" lon="5.7404">
        <ele>451</ele>
        <time>2013-08-10T08:30:32.029Z</time>
      </trkpt>
      <trkpt lat="45.41619" lon="5.7402">
        <ele>450</ele>
        <time>2013-08-10T08:30:37.027Z</time>
      </trkpt>
      <trkpt lat="45.4159" lon="5.73998">
        <ele>449</ele>
        <time>2013-08-10T08:30:42.030Z</time>
      </trkpt>
      <trkpt lat="45.41554" lon="5.73985">
        <ele>448</ele>
        <time>2013-08-10T08:30:47.029Z</time>
      </trkpt>
      <trkpt lat="45.41525" lon="5.73957">
        <ele>444</ele>
        <time>2013-08-10T08:30:52.031Z</time>
      </trkpt>
      <trkpt lat="45.41291" lon="5.7379">
        <ele>438</ele>
        <time>2013-08-10T08:31:42.028Z</time>
      </trkpt>
      <trkpt lat="45.41245" lon="5.73755">
        <ele>437</ele>
        <time>2013-08-10T08:31:52.038Z</time>
      </trkpt>
      <trkpt lat="45.41218" lon="5.73752">
        <ele>438</ele>
        <time>2013-08-10T08:31:57.035Z</time>
      </trkpt>
      <trkpt lat="45.41163" lon="5.73741">
        <ele>438</ele>
        <time>2013-08-10T08:32:07.035Z</time>
      </trkpt>
      <trkpt lat="45.41137" lon="5.73718">
        <ele>439</ele>
        <time>2013-08-10T08:32:12.025Z</time>
      </trkpt>
      <trkpt lat="45.41112" lon="5.73703">
        <ele>440</ele>
        <time>2013-08-10T08:32:17.023Z</time>
      </trkpt>
      <trkpt lat="45.41084" lon="5.73687">
        <ele>439</ele>
        <time>2013-08-10T08:32:22.045Z</time>
      </trkpt>
      <trkpt lat="45.41058" lon="5.73669">
        <ele>440</ele>
        <time>2013-08-10T08:32:27.043Z</time>
      </trkpt>
      <trkpt lat="45.41031" lon="5.73651">
        <ele>441</ele>
        <time>2013-08-10T08:32:32.041Z</time>
      </trkpt>
      <trkpt lat="45.41005" lon="5.73632">
        <ele>441</ele>
        <time>2013-08-10T08:32:37.041Z</time>
      </trkpt>
      <trkpt lat="45.40976" lon="5.73613">
        <ele>442</ele>
        <time>2013-08-10T08:32:42.045Z</time>
      </trkpt>
      <trkpt lat="45.40948" lon="5.73594">
        <ele>442</ele>
        <time>2013-08-10T08:32:47.040Z</time>
      </trkpt>
      <trkpt lat="45.4092" lon="5.73575">
        <ele>443</ele>
        <time>2013-08-10T08:32:52.048Z</time>
      </trkpt>
      <trkpt lat="45.40893" lon="5.73556">
        <ele>443</ele>
        <time>2013-08-10T08:32:57.044Z</time>
      </trkpt>
      <trkpt lat="45.40674" lon="5.73334">
        <ele>446</ele>
        <time>2013-08-10T08:33:42.027Z</time>
      </trkpt>
      <trkpt lat="45.4065" lon="5.73308">
        <ele>446</ele>
        <time>2013-08-10T08:33:47.028Z</time>
      </trkpt>
      <trkpt lat="45.40603" lon="5.73243">
        <ele>447</ele>
        <time>2013-08-10T08:33:57.046Z</time>
      </trkpt>
      <trkpt lat="45.40603" lon="5.73243">
        <ele>447</ele>
        <time>2013-08-10T08:33:57.046Z</time>
      </trkpt>
      <trkpt lat="45.40563" lon="5.73174">
        <ele>447</ele>
        <time>2013-08-10T08:34:07.041Z</time>
      </trkpt>
      <trkpt lat="45.40543" lon="5.7314">
        <ele>447</ele>
        <time>2013-08-10T08:34:12.041Z</time>
      </trkpt>
      <trkpt lat="45.4052" lon="5.73108">
        <ele>447</ele>
        <time>2013-08-10T08:34:17.041Z</time>
      </trkpt>
      <trkpt lat="45.40499" lon="5.73075">
        <ele>447</ele>
        <time>2013-08-10T08:34:22.053Z</time>
      </trkpt>
      <trkpt lat="45.40476" lon="5.73046">
        <ele>447</ele>
        <time>2013-08-10T08:34:27.041Z</time>
      </trkpt>
      <trkpt lat="45.40454" lon="5.73014">
        <ele>448</ele>
        <time>2013-08-10T08:34:32.041Z</time>
      </trkpt>
      <trkpt lat="45.40435" lon="5.72981">
        <ele>449</ele>
        <time>2013-08-10T08:34:37.044Z</time>
      </trkpt>
      <trkpt lat="45.40415" lon="5.72949">
        <ele>449</ele>
        <time>2013-08-10T08:34:42.043Z</time>
      </trkpt>
      <trkpt lat="45.40388" lon="5.72928">
        <ele>449</ele>
        <time>2013-08-10T08:34:47.043Z</time>
      </trkpt>
      <trkpt lat="45.4036" lon="5.7292">
        <ele>449</ele>
        <time>2013-08-10T08:34:52.049Z</time>
      </trkpt>
      <trkpt lat="45.40345" lon="5.72887">
        <ele>449</ele>
        <time>2013-08-10T08:34:57.044Z</time>
      </trkpt>
      <trkpt lat="45.4022" lon="5.72588">
        <ele>451</ele>
        <time>2013-08-10T08:35:37.041Z</time>
      </trkpt>
      <trkpt lat="45.40192" lon="5.72561">
        <ele>451</ele>
        <time>2013-08-10T08:35:42.043Z</time>
      </trkpt>
      <trkpt lat="45.40167" lon="5.72533">
        <ele>450</ele>
        <time>2013-08-10T08:35:47.041Z</time>
      </trkpt>
      <trkpt lat="45.40146" lon="5.72497">
        <ele>450</ele>
        <time>2013-08-10T08:35:52.048Z</time>
      </trkpt>
      <trkpt lat="45.40129" lon="5.72454">
        <ele>450</ele>
        <time>2013-08-10T08:35:57.051Z</time>
      </trkpt>
      <trkpt lat="45.40119" lon="5.72409">
        <ele>450</ele>
        <time>2013-08-10T08:36:02.444Z</time>
      </trkpt>
      <trkpt lat="45.40104" lon="5.72373">
        <ele>450</ele>
        <time>2013-08-10T08:36:07.043Z</time>
      </trkpt>
      <trkpt lat="45.40093" lon="5.72342">
        <ele>451</ele>
        <time>2013-08-10T08:36:12.040Z</time>
      </trkpt>
      <trkpt lat="45.40083" lon="5.7234">
        <ele>451</ele>
        <time>2013-08-10T08:36:17.045Z</time>
      </trkpt>
      <trkpt lat="45.40081" lon="5.72341">
        <ele>451</ele>
        <time>2013-08-10T08:36:22.060Z</time>
      </trkpt>
      <trkpt lat="45.40082" lon="5.7234">
        <ele>451</ele>
        <time>2013-08-10T08:36:27.044Z</time>
      </trkpt>
      <trkpt lat="45.40082" lon="5.7234">
        <ele>451</ele>
        <time>2013-08-10T08:36:32.040Z</time>
      </trkpt>
      <trkpt lat="45.40081" lon="5.72338">
        <ele>451</ele>
        <time>2013-08-10T08:36:37.037Z</time>
      </trkpt>
      <trkpt lat="45.40081" lon="5.72338">
        <ele>451</ele>
        <time>2013-08-10T08:36:42.037Z</time>
      </trkpt>
      <trkpt lat="45.4008" lon="5.72336">
        <ele>451</ele>
        <time>2013-08-10T08:36:47.037Z</time>
      </trkpt>
      <trkpt lat="45.40081" lon="5.72335">
        <ele>451</ele>
        <time>2013-08-10T08:36:52.052Z</time>
      </trkpt>
      <trkpt lat="45.40085" lon="5.72335">
        <ele>452</ele>
        <time>2013-08-10T08:36:57.039Z</time>
      </trkpt>
      <trkpt lat="45.401" lon="5.7233">
        <ele>454</ele>
        <time>2013-08-10T08:37:02.040Z</time>
      </trkpt>
      <trkpt lat="45.40122" lon="5.7232">
        <ele>455</ele>
        <time>2013-08-10T08:37:07.040Z</time>
      </trkpt>
      <trkpt lat="45.40146" lon="5.72314">
        <ele>454</ele>
        <time>2013-08-10T08:37:12.040Z</time>
      </trkpt>
      <trkpt lat="45.40177" lon="5.72301">
        <ele>454</ele>
        <time>2013-08-10T08:37:17.043Z</time>
      </trkpt>
      <trkpt lat="45.40209" lon="5.72279">
        <ele>452</ele>
        <time>2013-08-10T08:37:22.052Z</time>
      </trkpt>
      <trkpt lat="45.40241" lon="5.72255">
        <ele>450</ele>
        <time>2013-08-10T08:37:27.043Z</time>
      </trkpt>
      <trkpt lat="45.4027" lon="5.72226">
        <ele>449</ele>
        <time>2013-08-10T08:37:32.043Z</time>
      </trkpt>
      <trkpt lat="45.40296" lon="5.72193">
        <ele>448</ele>
        <time>2013-08-10T08:37:37.038Z</time>
      </trkpt>
      <trkpt lat="45.40324" lon="5.72164">
        <ele>448</ele>
        <time>2013-08-10T08:37:42.040Z</time>
      </trkpt>
      <trkpt lat="45.40351" lon="5.72135">
        <ele>447</ele>
        <time>2013-08-10T08:37:47.040Z</time>
      </trkpt>
      <trkpt lat="45.40377" lon="5.72105">
        <ele>447</ele>
        <time>2013-08-10T08:37:52.049Z</time>
      </trkpt>
      <trkpt lat="45.40402" lon="5.72078">
        <ele>447</ele>
        <time>2013-08-10T08:37:57.040Z</time>
      </trkpt>
      <trkpt lat="45.40428" lon="5.72052">
        <ele>447</ele>
        <time>2013-08-10T08:38:02.040Z</time>
      </trkpt>
      <trkpt lat="45.40453" lon="5.72024">
        <ele>447</ele>
        <time>2013-08-10T08:38:07.040Z</time>
      </trkpt>
      <trkpt lat="45.40471" lon="5.72006">
        <ele>448</ele>
        <time>2013-08-10T08:38:12.040Z</time>
      </trkpt>
      <trkpt lat="45.40475" lon="5.71988">
        <ele>448</ele>
        <time>2013-08-10T08:38:17.040Z</time>
      </trkpt>
      <trkpt lat="45.4047" lon="5.71971">
        <ele>449</ele>
        <time>2013-08-10T08:38:22.052Z</time>
      </trkpt>
      <trkpt lat="45.40466" lon="5.71957">
        <ele>450</ele>
        <time>2013-08-10T08:38:27.040Z</time>
      </trkpt>
      <trkpt lat="45.4046" lon="5.71938">
        <ele>450</ele>
        <time>2013-08-10T08:38:32.037Z</time>
      </trkpt>
      <trkpt lat="45.40453" lon="5.71915">
        <ele>450</ele>
        <time>2013-08-10T08:38:37.037Z</time>
      </trkpt>
      <trkpt lat="45.40445" lon="5.7189">
        <ele>450</ele>
        <time>2013-08-10T08:38:42.044Z</time>
      </trkpt>
      <trkpt lat="45.40436" lon="5.71866">
        <ele>449</ele>
        <time>2013-08-10T08:38:47.031Z</time>
      </trkpt>
      <trkpt lat="45.4043" lon="5.71841">
        <ele>449</ele>
        <time>2013-08-10T08:38:52.044Z</time>
      </trkpt>
      <trkpt lat="45.40295" lon="5.71531">
        <ele>455</ele>
        <time>2013-08-10T08:39:42.213Z</time>
      </trkpt>
      <trkpt lat="45.40267" lon="5.71471">
        <ele>456</ele>
        <time>2013-08-10T08:39:52.041Z</time>
      </trkpt>
      <trkpt lat="45.40252" lon="5.71439">
        <ele>456</ele>
        <time>2013-08-10T08:39:57.040Z</time>
      </trkpt>
      <trkpt lat="45.40223" lon="5.7138">
        <ele>455</ele>
        <time>2013-08-10T08:40:07.037Z</time>
      </trkpt>
      <trkpt lat="45.40209" lon="5.71353">
        <ele>454</ele>
        <time>2013-08-10T08:40:12.037Z</time>
      </trkpt>
      <trkpt lat="45.40189" lon="5.71329">
        <ele>454</ele>
        <time>2013-08-10T08:40:17.037Z</time>
      </trkpt>
      <trkpt lat="45.40166" lon="5.71305">
        <ele>454</ele>
        <time>2013-08-10T08:40:22.044Z</time>
      </trkpt>
      <trkpt lat="45.4015" lon="5.71275">
        <ele>453</ele>
        <time>2013-08-10T08:40:27.043Z</time>
      </trkpt>
      <trkpt lat="45.40133" lon="5.71245">
        <ele>452</ele>
        <time>2013-08-10T08:40:32.038Z</time>
      </trkpt>
      <trkpt lat="45.4011" lon="5.71219">
        <ele>453</ele>
        <time>2013-08-10T08:40:37.041Z</time>
      </trkpt>
      <trkpt lat="45.40087" lon="5.71195">
        <ele>453</ele>
        <time>2013-08-10T08:40:42.042Z</time>
      </trkpt>
      <trkpt lat="45.40066" lon="5.71175">
        <ele>453</ele>
        <time>2013-08-10T08:40:47.036Z</time>
      </trkpt>
      <trkpt lat="45.4005" lon="5.71146">
        <ele>453</ele>
        <time>2013-08-10T08:40:52.045Z</time>
      </trkpt>
      <trkpt lat="45.40034" lon="5.71112">
        <ele>452</ele>
        <time>2013-08-10T08:40:57.038Z</time>
      </trkpt>
      <trkpt lat="45.4002" lon="5.71092">
        <ele>453</ele>
        <time>2013-08-10T08:41:02.040Z</time>
      </trkpt>
      <trkpt lat="45.40011" lon="5.71079">
        <ele>453</ele>
        <time>2013-08-10T08:41:07.037Z</time>
      </trkpt>
      <trkpt lat="45.40007" lon="5.71078">
        <ele>451</ele>
        <time>2013-08-10T08:41:12.039Z</time>
      </trkpt>
      <trkpt lat="45.40006" lon="5.71078">
        <ele>450</ele>
        <time>2013-08-10T08:41:17.039Z</time>
      </trkpt>
      <trkpt lat="45.40006" lon="5.71079">
        <ele>450</ele>
        <time>2013-08-10T08:41:22.041Z</time>
      </trkpt>
      <trkpt lat="45.40007" lon="5.71079">
        <ele>449</ele>
        <time>2013-08-10T08:41:27.032Z</time>
      </trkpt>
      <trkpt lat="45.40006" lon="5.71079">
        <ele>448</ele>
        <time>2013-08-10T08:41:32.033Z</time>
      </trkpt>
      <trkpt lat="45.40002" lon="5.71081">
        <ele>449</ele>
        <time>2013-08-10T08:41:37.035Z</time>
      </trkpt>
      <trkpt lat="45.40001" lon="5.71089">
        <ele>449</ele>
        <time>2013-08-10T08:41:42.032Z</time>
      </trkpt>
      <trkpt lat="45.40001" lon="5.71091">
        <ele>451</ele>
        <time>2013-08-10T08:41:47.033Z</time>
      </trkpt>
      <trkpt lat="45.40001" lon="5.71091">
        <ele>451</ele>
        <time>2013-08-10T08:41:52.042Z</time>
      </trkpt>
      <trkpt lat="45.40001" lon="5.71091">
        <ele>451</ele>
        <time>2013-08-10T08:41:57.029Z</time>
      </trkpt>
      <trkpt lat="45.40002" lon="5.7108">
        <ele>450</ele>
        <time>2013-08-10T08:42:42.022Z</time>
      </trkpt>
      <trkpt lat="45.40005" lon="5.71079">
        <ele>450</ele>
        <time>2013-08-10T08:42:47.041Z</time>
      </trkpt>
      <trkpt lat="45.40005" lon="5.71079">
        <ele>450</ele>
        <time>2013-08-10T08:42:52.034Z</time>
      </trkpt>
      <trkpt lat="45.40003" lon="5.71078">
        <ele>451</ele>
        <time>2013-08-10T08:42:57.055Z</time>
      </trkpt>
      <trkpt lat="45.40002" lon="5.7108">
        <ele>451</ele>
        <time>2013-08-10T08:43:07.042Z</time>
      </trkpt>
      <trkpt lat="45.40003" lon="5.71081">
        <ele>450</ele>
        <time>2013-08-10T08:43:12.040Z</time>
      </trkpt>
      <trkpt lat="45.40002" lon="5.71079">
        <ele>450</ele>
        <time>2013-08-10T08:43:17.037Z</time>
      </trkpt>
      <trkpt lat="45.40005" lon="5.7108">
        <ele>447</ele>
        <time>2013-08-10T08:43:22.045Z</time>
      </trkpt>
      <trkpt lat="45.40005" lon="5.71079">
        <ele>447</ele>
        <time>2013-08-10T08:43:27.038Z</time>
      </trkpt>
      <trkpt lat="45.40005" lon="5.71078">
        <ele>448</ele>
        <time>2013-08-10T08:43:32.035Z</time>
      </trkpt>
      <trkpt lat="45.40006" lon="5.71079">
        <ele>448</ele>
        <time>2013-08-10T08:43:37.037Z</time>
      </trkpt>
      <trkpt lat="45.40007" lon="5.7108">
        <ele>448</ele>
        <time>2013-08-10T08:43:42.040Z</time>
      </trkpt>
      <trkpt lat="45.40007" lon="5.71081">
        <ele>449</ele>
        <time>2013-08-10T08:43:47.037Z</time>
      </trkpt>
      <trkpt lat="45.40007" lon="5.71082">
        <ele>448</ele>
        <time>2013-08-10T08:43:52.048Z</time>
      </trkpt>
      <trkpt lat="45.40004" lon="5.71076">
        <ele>456</ele>
        <time>2013-08-10T08:44:37.020Z</time>
      </trkpt>
      <trkpt lat="45.40003" lon="5.71076">
        <ele>457</ele>
        <time>2013-08-10T08:44:42.029Z</time>
      </trkpt>
      <trkpt lat="45.40003" lon="5.71075">
        <ele>457</ele>
        <time>2013-08-10T08:44:47.029Z</time>
      </trkpt>
      <trkpt lat="45.40003" lon="5.71074">
        <ele>457</ele>
        <time>2013-08-10T08:44:52.035Z</time>
      </trkpt>
      <trkpt lat="45.40002" lon="5.71075">
        <ele>458</ele>
        <time>2013-08-10T08:44:57.034Z</time>
      </trkpt>
      <trkpt lat="45.40001" lon="5.71076">
        <ele>458</ele>
        <time>2013-08-10T08:45:02.038Z</time>
      </trkpt>
      <trkpt lat="45.40002" lon="5.71074">
        <ele>458</ele>
        <time>2013-08-10T08:45:07.037Z</time>
      </trkpt>
      <trkpt lat="45.40003" lon="5.71076">
        <ele>458</ele>
        <time>2013-08-10T08:45:12.039Z</time>
      </trkpt>
      <trkpt lat="45.40004" lon="5.71077">
        <ele>457</ele>
        <time>2013-08-10T08:45:22.037Z</time>
      </trkpt>
      <trkpt lat="45.40005" lon="5.71077">
        <ele>456</ele>
        <time>2013-08-10T08:45:27.039Z</time>
      </trkpt>
      <trkpt lat="45.40005" lon="5.71077">
        <ele>455</ele>
        <time>2013-08-10T08:45:32.035Z</time>
      </trkpt>
      <trkpt lat="45.40007" lon="5.71077">
        <ele>455</ele>
        <time>2013-08-10T08:45:37.038Z</time>
      </trkpt>
      <trkpt lat="45.40007" lon="5.71076">
        <ele>456</ele>
        <time>2013-08-10T08:45:42.041Z</time>
      </trkpt>
      <trkpt lat="45.40008" lon="5.71076">
        <ele>456</ele>
        <time>2013-08-10T08:45:47.038Z</time>
      </trkpt>
      <trkpt lat="45.40009" lon="5.71075">
        <ele>455</ele>
        <time>2013-08-10T08:45:52.041Z</time>
      </trkpt>
      <trkpt lat="45.4001" lon="5.71075">
        <ele>455</ele>
        <time>2013-08-10T08:45:57.041Z</time>
      </trkpt>
      <trkpt lat="45.39945" lon="5.70988">
        <ele>454</ele>
        <time>2013-08-10T08:46:42.039Z</time>
      </trkpt>
      <trkpt lat="45.39932" lon="5.70964">
        <ele>453</ele>
        <time>2013-08-10T08:46:47.034Z</time>
      </trkpt>
      <trkpt lat="45.3992" lon="5.70941">
        <ele>452</ele>
        <time>2013-08-10T08:46:52.035Z</time>
      </trkpt>
      <trkpt lat="45.39891" lon="5.70891">
        <ele>453</ele>
        <time>2013-08-10T08:47:02.039Z</time>
      </trkpt>
      <trkpt lat="45.39878" lon="5.70872">
        <ele>454</ele>
        <time>2013-08-10T08:47:07.038Z</time>
      </trkpt>
      <trkpt lat="45.39869" lon="5.70852">
        <ele>454</ele>
        <time>2013-08-10T08:47:12.038Z</time>
      </trkpt>
      <trkpt lat="45.39859" lon="5.70827">
        <ele>454</ele>
        <time>2013-08-10T08:47:17.040Z</time>
      </trkpt>
      <trkpt lat="45.39848" lon="5.70805">
        <ele>454</ele>
        <time>2013-08-10T08:47:22.054Z</time>
      </trkpt>
      <trkpt lat="45.39834" lon="5.70785">
        <ele>454</ele>
        <time>2013-08-10T08:47:27.041Z</time>
      </trkpt>
      <trkpt lat="45.39819" lon="5.70762">
        <ele>454</ele>
        <time>2013-08-10T08:47:32.040Z</time>
      </trkpt>
      <trkpt lat="45.39804" lon="5.70738">
        <ele>453</ele>
        <time>2013-08-10T08:47:37.041Z</time>
      </trkpt>
      <trkpt lat="45.3979" lon="5.70713">
        <ele>454</ele>
        <time>2013-08-10T08:47:42.045Z</time>
      </trkpt>
      <trkpt lat="45.39774" lon="5.70689">
        <ele>454</ele>
        <time>2013-08-10T08:47:47.040Z</time>
      </trkpt>
      <trkpt lat="45.39761" lon="5.70665">
        <ele>453</ele>
        <time>2013-08-10T08:47:52.049Z</time>
      </trkpt>
      <trkpt lat="45.39751" lon="5.70637">
        <ele>453</ele>
        <time>2013-08-10T08:47:57.041Z</time>
      </trkpt>
      <trkpt lat="45.39743" lon="5.70613">
        <ele>454</ele>
        <time>2013-08-10T08:48:02.041Z</time>
      </trkpt>
      <trkpt lat="45.39735" lon="5.70592">
        <ele>454</ele>
        <time>2013-08-10T08:48:07.040Z</time>
      </trkpt>
      <trkpt lat="45.3973" lon="5.70573">
        <ele>453</ele>
        <time>2013-08-10T08:48:12.038Z</time>
      </trkpt>
      <trkpt lat="45.39727" lon="5.70554">
        <ele>454</ele>
        <time>2013-08-10T08:48:17.039Z</time>
      </trkpt>
      <trkpt lat="45.39726" lon="5.70536">
        <ele>455</ele>
        <time>2013-08-10T08:48:22.048Z</time>
      </trkpt>
      <trkpt lat="45.39723" lon="5.70518">
        <ele>455</ele>
        <time>2013-08-10T08:48:27.039Z</time>
      </trkpt>
      <trkpt lat="45.39714" lon="5.70499">
        <ele>457</ele>
        <time>2013-08-10T08:48:32.038Z</time>
      </trkpt>
      <trkpt lat="45.3971" lon="5.70483">
        <ele>458</ele>
        <time>2013-08-10T08:48:37.038Z</time>
      </trkpt>
      <trkpt lat="45.39704" lon="5.70471">
        <ele>459</ele>
        <time>2013-08-10T08:48:42.037Z</time>
      </trkpt>
      <trkpt lat="45.39697" lon="5.70454">
        <ele>459</ele>
        <time>2013-08-10T08:48:47.038Z</time>
      </trkpt>
      <trkpt lat="45.3969" lon="5.70434">
        <ele>460</ele>
        <time>2013-08-10T08:48:52.045Z</time>
      </trkpt>
      <trkpt lat="45.39683" lon="5.70415">
        <ele>462</ele>
        <time>2013-08-10T08:48:57.035Z</time>
      </trkpt>
      <trkpt lat="45.39682" lon="5.70396">
        <ele>462</ele>
        <time>2013-08-10T08:49:02.036Z</time>
      </trkpt>
      <trkpt lat="45.39687" lon="5.70381">
        <ele>463</ele>
        <time>2013-08-10T08:49:07.038Z</time>
      </trkpt>
      <trkpt lat="45.39687" lon="5.70365">
        <ele>463</ele>
        <time>2013-08-10T08:49:12.044Z</time>
      </trkpt>
      <trkpt lat="45.39687" lon="5.70344">
        <ele>463</ele>
        <time>2013-08-10T08:49:17.041Z</time>
      </trkpt>
      <trkpt lat="45.39676" lon="5.70325">
        <ele>463</ele>
        <time>2013-08-10T08:49:22.044Z</time>
      </trkpt>
      <trkpt lat="45.39666" lon="5.70319">
        <ele>462</ele>
        <time>2013-08-10T08:49:27.038Z</time>
      </trkpt>
      <trkpt lat="45.39648" lon="5.7032">
        <ele>462</ele>
        <time>2013-08-10T08:49:32.041Z</time>
      </trkpt>
      <trkpt lat="45.39623" lon="5.70311">
        <ele>463</ele>
        <time>2013-08-10T08:49:37.037Z</time>
      </trkpt>
      <trkpt lat="45.39596" lon="5.70309">
        <ele>463</ele>
        <time>2013-08-10T08:49:42.038Z</time>
      </trkpt>
      <trkpt lat="45.39567" lon="5.70301">
        <ele>463</ele>
        <time>2013-08-10T08:49:47.038Z</time>
      </trkpt>
      <trkpt lat="45.39544" lon="5.70278">
        <ele>462</ele>
        <time>2013-08-10T08:49:52.049Z</time>
      </trkpt>
      <trkpt lat="45.39316" lon="5.70016">
        <ele>460</ele>
        <time>2013-08-10T08:50:42.023Z</time>
      </trkpt>
      <trkpt lat="45.3929" lon="5.69992">
        <ele>459</ele>
        <time>2013-08-10T08:50:47.037Z</time>
      </trkpt>
      <trkpt lat="45.39263" lon="5.69969">
        <ele>459</ele>
        <time>2013-08-10T08:50:52.048Z</time>
      </trkpt>
      <trkpt lat="45.39199" lon="5.69898">
        <ele>457</ele>
        <time>2013-08-10T08:51:07.038Z</time>
      </trkpt>
      <trkpt lat="45.3918" lon="5.69875">
        <ele>457</ele>
        <time>2013-08-10T08:51:12.038Z</time>
      </trkpt>
      <trkpt lat="45.39163" lon="5.69846">
        <ele>457</ele>
        <time>2013-08-10T08:51:17.041Z</time>
      </trkpt>
      <trkpt lat="45.3915" lon="5.69818">
        <ele>457</ele>
        <time>2013-08-10T08:51:22.609Z</time>
      </trkpt>
      <trkpt lat="45.39142" lon="5.69795">
        <ele>457</ele>
        <time>2013-08-10T08:51:27.041Z</time>
      </trkpt>
      <trkpt lat="45.39135" lon="5.6977">
        <ele>456</ele>
        <time>2013-08-10T08:51:32.038Z</time>
      </trkpt>
      <trkpt lat="45.39126" lon="5.69742">
        <ele>456</ele>
        <time>2013-08-10T08:51:37.036Z</time>
      </trkpt>
      <trkpt lat="45.39118" lon="5.69707">
        <ele>457</ele>
        <time>2013-08-10T08:51:42.038Z</time>
      </trkpt>
      <trkpt lat="45.39109" lon="5.69668">
        <ele>456</ele>
        <time>2013-08-10T08:51:47.038Z</time>
      </trkpt>
      <trkpt lat="45.39093" lon="5.69639">
        <ele>455</ele>
        <time>2013-08-10T08:51:52.053Z</time>
      </trkpt>
      <trkpt lat="45.39076" lon="5.69611">
        <ele>454</ele>
        <time>2013-08-10T08:51:57.038Z</time>
      </trkpt>
      <trkpt lat="45.3906" lon="5.69579">
        <ele>454</ele>
        <time>2013-08-10T08:52:02.024Z</time>
      </trkpt>
      <trkpt lat="45.39049" lon="5.69548">
        <ele>454</ele>
        <time>2013-08-10T08:52:07.037Z</time>
      </trkpt>
      <trkpt lat="45.39039" lon="5.69516">
        <ele>454</ele>
        <time>2013-08-10T08:52:12.038Z</time>
      </trkpt>
      <trkpt lat="45.39021" lon="5.69489">
        <ele>454</ele>
        <time>2013-08-10T08:52:17.038Z</time>
      </trkpt>
      <trkpt lat="45.39003" lon="5.69474">
        <ele>455</ele>
        <time>2013-08-10T08:52:22.047Z</time>
      </trkpt>
      <trkpt lat="45.38984" lon="5.69459">
        <ele>456</ele>
        <time>2013-08-10T08:52:27.041Z</time>
      </trkpt>
      <trkpt lat="45.38967" lon="5.69447">
        <ele>457</ele>
        <time>2013-08-10T08:52:32.041Z</time>
      </trkpt>
      <trkpt lat="45.38956" lon="5.69421">
        <ele>457</ele>
        <time>2013-08-10T08:52:37.038Z</time>
      </trkpt>
      <trkpt lat="45.38944" lon="5.69391">
        <ele>459</ele>
        <time>2013-08-10T08:52:42.038Z</time>
      </trkpt>
      <trkpt lat="45.38925" lon="5.69377">
        <ele>459</ele>
        <time>2013-08-10T08:52:47.036Z</time>
      </trkpt>
      <trkpt lat="45.38905" lon="5.69369">
        <ele>459</ele>
        <time>2013-08-10T08:52:52.047Z</time>
      </trkpt>
      <trkpt lat="45.38887" lon="5.6936">
        <ele>460</ele>
        <time>2013-08-10T08:52:57.040Z</time>
      </trkpt>
      <trkpt lat="45.3887" lon="5.69348">
        <ele>459</ele>
        <time>2013-08-10T08:53:02.038Z</time>
      </trkpt>
      <trkpt lat="45.38854" lon="5.69336">
        <ele>460</ele>
        <time>2013-08-10T08:53:07.040Z</time>
      </trkpt>
      <trkpt lat="45.3884" lon="5.69317">
        <ele>461</ele>
        <time>2013-08-10T08:53:12.035Z</time>
      </trkpt>
      <trkpt lat="45.38825" lon="5.69294">
        <ele>462</ele>
        <time>2013-08-10T08:53:17.036Z</time>
      </trkpt>
      <trkpt lat="45.3881" lon="5.69275">
        <ele>462</ele>
        <time>2013-08-10T08:53:22.044Z</time>
      </trkpt>
      <trkpt lat="45.3879" lon="5.69263">
        <ele>462</ele>
        <time>2013-08-10T08:53:27.036Z</time>
      </trkpt>
      <trkpt lat="45.38765" lon="5.69254">
        <ele>461</ele>
        <time>2013-08-10T08:53:32.035Z</time>
      </trkpt>
      <trkpt lat="45.3874" lon="5.6924">
        <ele>462</ele>
        <time>2013-08-10T08:53:37.039Z</time>
      </trkpt>
      <trkpt lat="45.38716" lon="5.69224">
        <ele>462</ele>
        <time>2013-08-10T08:53:42.038Z</time>
      </trkpt>
      <trkpt lat="45.38696" lon="5.69205">
        <ele>462</ele>
        <time>2013-08-10T08:53:47.040Z</time>
      </trkpt>
      <trkpt lat="45.38677" lon="5.69183">
        <ele>462</ele>
        <time>2013-08-10T08:53:52.056Z</time>
      </trkpt>
      <trkpt lat="45.38661" lon="5.69164">
        <ele>462</ele>
        <time>2013-08-10T08:53:57.040Z</time>
      </trkpt>
      <trkpt lat="45.38645" lon="5.69148">
        <ele>462</ele>
        <time>2013-08-10T08:54:02.038Z</time>
      </trkpt>
      <trkpt lat="45.38631" lon="5.69138">
        <ele>464</ele>
        <time>2013-08-10T08:54:07.038Z</time>
      </trkpt>
      <trkpt lat="45.3861" lon="5.69129">
        <ele>464</ele>
        <time>2013-08-10T08:54:12.038Z</time>
      </trkpt>
      <trkpt lat="45.38588" lon="5.69128">
        <ele>463</ele>
        <time>2013-08-10T08:54:17.040Z</time>
      </trkpt>
      <trkpt lat="45.38562" lon="5.69135">
        <ele>461</ele>
        <time>2013-08-10T08:54:22.051Z</time>
      </trkpt>
      <trkpt lat="45.38533" lon="5.69133">
        <ele>460</ele>
        <time>2013-08-10T08:54:27.039Z</time>
      </trkpt>
      <trkpt lat="45.38507" lon="5.69131">
        <ele>459</ele>
        <time>2013-08-10T08:54:32.036Z</time>
      </trkpt>
      <trkpt lat="45.38483" lon="5.69106">
        <ele>459</ele>
        <time>2013-08-10T08:54:37.037Z</time>
      </trkpt>
      <trkpt lat="45.38462" lon="5.69068">
        <ele>458</ele>
        <time>2013-08-10T08:54:42.032Z</time>
      </trkpt>
      <trkpt lat="45.38442" lon="5.69036">
        <ele>457</ele>
        <time>2013-08-10T08:54:47.038Z</time>
      </trkpt>
      <trkpt lat="45.38421" lon="5.6902">
        <ele>456</ele>
        <time>2013-08-10T08:54:52.047Z</time>
      </trkpt>
      <trkpt lat="45.38401" lon="5.69001">
        <ele>456</ele>
        <time>2013-08-10T08:54:57.038Z</time>
      </trkpt>
      <trkpt lat="45.38356" lon="5.68963">
        <ele>457</ele>
        <time>2013-08-10T08:55:07.038Z</time>
      </trkpt>
      <trkpt lat="45.38333" lon="5.68948">
        <ele>457</ele>
        <time>2013-08-10T08:55:12.038Z</time>
      </trkpt>
      <trkpt lat="45.38313" lon="5.68934">
        <ele>457</ele>
        <time>2013-08-10T08:55:17.039Z</time>
      </trkpt>
      <trkpt lat="45.3829" lon="5.68917">
        <ele>457</ele>
        <time>2013-08-10T08:55:22.047Z</time>
      </trkpt>
      <trkpt lat="45.3827" lon="5.68896">
        <ele>457</ele>
        <time>2013-08-10T08:55:27.039Z</time>
      </trkpt>
      <trkpt lat="45.38253" lon="5.68875">
        <ele>456</ele>
        <time>2013-08-10T08:55:32.039Z</time>
      </trkpt>
      <trkpt lat="45.3824" lon="5.68851">
        <ele>458</ele>
        <time>2013-08-10T08:55:37.038Z</time>
      </trkpt>
      <trkpt lat="45.38225" lon="5.68826">
        <ele>458</ele>
        <time>2013-08-10T08:55:42.036Z</time>
      </trkpt>
      <trkpt lat="45.38212" lon="5.68798">
        <ele>458</ele>
        <time>2013-08-10T08:55:47.044Z</time>
      </trkpt>
      <trkpt lat="45.38202" lon="5.68767">
        <ele>458</ele>
        <time>2013-08-10T08:55:52.046Z</time>
      </trkpt>
      <trkpt lat="45.3819" lon="5.68736">
        <ele>458</ele>
        <time>2013-08-10T08:55:57.038Z</time>
      </trkpt>
      <trkpt lat="45.38177" lon="5.68704">
        <ele>458</ele>
        <time>2013-08-10T08:56:02.040Z</time>
      </trkpt>
      <trkpt lat="45.38168" lon="5.68669">
        <ele>458</ele>
        <time>2013-08-10T08:56:07.039Z</time>
      </trkpt>
      <trkpt lat="45.38162" lon="5.68635">
        <ele>457</ele>
        <time>2013-08-10T08:56:12.036Z</time>
      </trkpt>
      <trkpt lat="45.38144" lon="5.68608">
        <ele>456</ele>
        <time>2013-08-10T08:56:17.038Z</time>
      </trkpt>
      <trkpt lat="45.38119" lon="5.68589">
        <ele>456</ele>
        <time>2013-08-10T08:56:22.054Z</time>
      </trkpt>
      <trkpt lat="45.38095" lon="5.68569">
        <ele>456</ele>
        <time>2013-08-10T08:56:27.040Z</time>
      </trkpt>
      <trkpt lat="45.38073" lon="5.68548">
        <ele>455</ele>
        <time>2013-08-10T08:56:32.036Z</time>
      </trkpt>
      <trkpt lat="45.38056" lon="5.68526">
        <ele>455</ele>
        <time>2013-08-10T08:56:37.033Z</time>
      </trkpt>
      <trkpt lat="45.38042" lon="5.68506">
        <ele>455</ele>
        <time>2013-08-10T08:56:42.036Z</time>
      </trkpt>
      <trkpt lat="45.38026" lon="5.68482">
        <ele>456</ele>
        <time>2013-08-10T08:56:47.036Z</time>
      </trkpt>
      <trkpt lat="45.3801" lon="5.68461">
        <ele>456</ele>
        <time>2013-08-10T08:56:52.045Z</time>
      </trkpt>
      <trkpt lat="45.37998" lon="5.68446">
        <ele>457</ele>
        <time>2013-08-10T08:56:57.040Z</time>
      </trkpt>
      <trkpt lat="45.37986" lon="5.68434">
        <ele>457</ele>
        <time>2013-08-10T08:57:02.039Z</time>
      </trkpt>
      <trkpt lat="45.37976" lon="5.68424">
        <ele>459</ele>
        <time>2013-08-10T08:57:07.038Z</time>
      </trkpt>
      <trkpt lat="45.37965" lon="5.68414">
        <ele>459</ele>
        <time>2013-08-10T08:57:12.020Z</time>
      </trkpt>
      <trkpt lat="45.37955" lon="5.68403">
        <ele>460</ele>
        <time>2013-08-10T08:57:17.041Z</time>
      </trkpt>
      <trkpt lat="45.37948" lon="5.68396">
        <ele>461</ele>
        <time>2013-08-10T08:57:22.055Z</time>
      </trkpt>
      <trkpt lat="45.3794" lon="5.6838">
        <ele>461</ele>
        <time>2013-08-10T08:57:27.042Z</time>
      </trkpt>
      <trkpt lat="45.37931" lon="5.68363">
        <ele>462</ele>
        <time>2013-08-10T08:57:32.023Z</time>
      </trkpt>
      <trkpt lat="45.37924" lon="5.68352">
        <ele>464</ele>
        <time>2013-08-10T08:57:37.034Z</time>
      </trkpt>
      <trkpt lat="45.37919" lon="5.68339">
        <ele>465</ele>
        <time>2013-08-10T08:57:42.034Z</time>
      </trkpt>
      <trkpt lat="45.37923" lon="5.68327">
        <ele>466</ele>
        <time>2013-08-10T08:57:47.041Z</time>
      </trkpt>
      <trkpt lat="45.37932" lon="5.68323">
        <ele>467</ele>
        <time>2013-08-10T08:57:52.045Z</time>
      </trkpt>
      <trkpt lat="45.37942" lon="5.68327">
        <ele>466</ele>
        <time>2013-08-10T08:57:57.036Z</time>
      </trkpt>
      <trkpt lat="45.37954" lon="5.68333">
        <ele>467</ele>
        <time>2013-08-10T08:58:02.036Z</time>
      </trkpt>
      <trkpt lat="45.37967" lon="5.68335">
        <ele>467</ele>
        <time>2013-08-10T08:58:07.036Z</time>
      </trkpt>
      <trkpt lat="45.37982" lon="5.6833">
        <ele>469</ele>
        <time>2013-08-10T08:58:12.021Z</time>
      </trkpt>
      <trkpt lat="45.37994" lon="5.68321">
        <ele>470</ele>
        <time>2013-08-10T08:58:17.040Z</time>
      </trkpt>
      <trkpt lat="45.38007" lon="5.68312">
        <ele>470</ele>
        <time>2013-08-10T08:58:22.040Z</time>
      </trkpt>
      <trkpt lat="45.3802" lon="5.68308">
        <ele>471</ele>
        <time>2013-08-10T08:58:27.046Z</time>
      </trkpt>
      <trkpt lat="45.38032" lon="5.68306">
        <ele>471</ele>
        <time>2013-08-10T08:58:32.022Z</time>
      </trkpt>
      <trkpt lat="45.38044" lon="5.68307">
        <ele>473</ele>
        <time>2013-08-10T08:58:37.043Z</time>
      </trkpt>
      <trkpt lat="45.38056" lon="5.68311">
        <ele>475</ele>
        <time>2013-08-10T08:58:42.022Z</time>
      </trkpt>
      <trkpt lat="45.38068" lon="5.68315">
        <ele>476</ele>
        <time>2013-08-10T08:58:47.022Z</time>
      </trkpt>
      <trkpt lat="45.38081" lon="5.68318">
        <ele>478</ele>
        <time>2013-08-10T08:58:52.054Z</time>
      </trkpt>
      <trkpt lat="45.38121" lon="5.68324">
        <ele>481</ele>
        <time>2013-08-10T08:59:07.040Z</time>
      </trkpt>
      <trkpt lat="45.38134" lon="5.68328">
        <ele>482</ele>
        <time>2013-08-10T08:59:12.041Z</time>
      </trkpt>
      <trkpt lat="45.38149" lon="5.68333">
        <ele>484</ele>
        <time>2013-08-10T08:59:17.038Z</time>
      </trkpt>
      <trkpt lat="45.38163" lon="5.68339">
        <ele>486</ele>
        <time>2013-08-10T08:59:22.047Z</time>
      </trkpt>
      <trkpt lat="45.38174" lon="5.68349">
        <ele>487</ele>
        <time>2013-08-10T08:59:27.039Z</time>
      </trkpt>
      <trkpt lat="45.38183" lon="5.68361">
        <ele>487</ele>
        <time>2013-08-10T08:59:32.036Z</time>
      </trkpt>
      <trkpt lat="45.38193" lon="5.68377">
        <ele>489</ele>
        <time>2013-08-10T08:59:37.040Z</time>
      </trkpt>
      <trkpt lat="45.38203" lon="5.68392">
        <ele>490</ele>
        <time>2013-08-10T08:59:42.041Z</time>
      </trkpt>
      <trkpt lat="45.38215" lon="5.68408">
        <ele>490</ele>
        <time>2013-08-10T08:59:47.039Z</time>
      </trkpt>
      <trkpt lat="45.38226" lon="5.68422">
        <ele>491</ele>
        <time>2013-08-10T08:59:52.050Z</time>
      </trkpt>
      <trkpt lat="45.3824" lon="5.68433">
        <ele>493</ele>
        <time>2013-08-10T08:59:57.046Z</time>
      </trkpt>
      <trkpt lat="45.38254" lon="5.68443">
        <ele>495</ele>
        <time>2013-08-10T09:00:02.046Z</time>
      </trkpt>
      <trkpt lat="45.38266" lon="5.68451">
        <ele>496</ele>
        <time>2013-08-10T09:00:07.035Z</time>
      </trkpt>
      <trkpt lat="45.38278" lon="5.68457">
        <ele>498</ele>
        <time>2013-08-10T09:00:12.047Z</time>
      </trkpt>
      <trkpt lat="45.38291" lon="5.68466">
        <ele>499</ele>
        <time>2013-08-10T09:00:17.046Z</time>
      </trkpt>
      <trkpt lat="45.38305" lon="5.68471">
        <ele>500</ele>
        <time>2013-08-10T09:00:22.055Z</time>
      </trkpt>
      <trkpt lat="45.38316" lon="5.6848">
        <ele>502</ele>
        <time>2013-08-10T09:00:27.043Z</time>
      </trkpt>
      <trkpt lat="45.38329" lon="5.68492">
        <ele>505</ele>
        <time>2013-08-10T09:00:32.044Z</time>
      </trkpt>
      <trkpt lat="45.38341" lon="5.68505">
        <ele>507</ele>
        <time>2013-08-10T09:00:37.041Z</time>
      </trkpt>
      <trkpt lat="45.38358" lon="5.6851">
        <ele>508</ele>
        <time>2013-08-10T09:00:42.044Z</time>
      </trkpt>
      <trkpt lat="45.38373" lon="5.6851">
        <ele>509</ele>
        <time>2013-08-10T09:00:47.042Z</time>
      </trkpt>
      <trkpt lat="45.38388" lon="5.68509">
        <ele>510</ele>
        <time>2013-08-10T09:00:52.052Z</time>
      </trkpt>
      <trkpt lat="45.38517" lon="5.6847">
        <ele>522</ele>
        <time>2013-08-10T09:01:42.040Z</time>
      </trkpt>
      <trkpt lat="45.38529" lon="5.68465">
        <ele>523</ele>
        <time>2013-08-10T09:01:47.042Z</time>
      </trkpt>
      <trkpt lat="45.38543" lon="5.68459">
        <ele>524</ele>
        <time>2013-08-10T09:01:52.054Z</time>
      </trkpt>
      <trkpt lat="45.38555" lon="5.68453">
        <ele>526</ele>
        <time>2013-08-10T09:01:57.040Z</time>
      </trkpt>
      <trkpt lat="45.38582" lon="5.68449">
        <ele>528</ele>
        <time>2013-08-10T09:02:08.615Z</time>
      </trkpt>
      <trkpt lat="45.38594" lon="5.68458">
        <ele>529</ele>
        <time>2013-08-10T09:02:12.039Z</time>
      </trkpt>
      <trkpt lat="45.38599" lon="5.68474">
        <ele>529</ele>
        <time>2013-08-10T09:02:17.039Z</time>
      </trkpt>
      <trkpt lat="45.38603" lon="5.68491">
        <ele>530</ele>
        <time>2013-08-10T09:02:22.056Z</time>
      </trkpt>
      <trkpt lat="45.38614" lon="5.68504">
        <ele>531</ele>
        <time>2013-08-10T09:02:27.041Z</time>
      </trkpt>
      <trkpt lat="45.38626" lon="5.68511">
        <ele>531</ele>
        <time>2013-08-10T09:02:32.039Z</time>
      </trkpt>
      <trkpt lat="45.38638" lon="5.68519">
        <ele>533</ele>
        <time>2013-08-10T09:02:37.039Z</time>
      </trkpt>
      <trkpt lat="45.3865" lon="5.68526">
        <ele>534</ele>
        <time>2013-08-10T09:02:42.039Z</time>
      </trkpt>
      <trkpt lat="45.38663" lon="5.68533">
        <ele>535</ele>
        <time>2013-08-10T09:02:47.039Z</time>
      </trkpt>
      <trkpt lat="45.38674" lon="5.68544">
        <ele>536</ele>
        <time>2013-08-10T09:02:52.165Z</time>
      </trkpt>
      <trkpt lat="45.38681" lon="5.6856">
        <ele>537</ele>
        <time>2013-08-10T09:02:57.045Z</time>
      </trkpt>
      <trkpt lat="45.38686" lon="5.68578">
        <ele>538</ele>
        <time>2013-08-10T09:03:02.046Z</time>
      </trkpt>
      <trkpt lat="45.38694" lon="5.68594">
        <ele>538</ele>
        <time>2013-08-10T09:03:07.031Z</time>
      </trkpt>
      <trkpt lat="45.38712" lon="5.68576">
        <ele>539</ele>
        <time>2013-08-10T09:03:17.045Z</time>
      </trkpt>
      <trkpt lat="45.38709" lon="5.68559">
        <ele>540</ele>
        <time>2013-08-10T09:03:22.052Z</time>
      </trkpt>
      <trkpt lat="45.38704" lon="5.68542">
        <ele>541</ele>
        <time>2013-08-10T09:03:27.047Z</time>
      </trkpt>
      <trkpt lat="45.38699" lon="5.68523">
        <ele>542</ele>
        <time>2013-08-10T09:03:32.042Z</time>
      </trkpt>
      <trkpt lat="45.38694" lon="5.68504">
        <ele>543</ele>
        <time>2013-08-10T09:03:37.045Z</time>
      </trkpt>
      <trkpt lat="45.38687" lon="5.68482">
        <ele>545</ele>
        <time>2013-08-10T09:03:42.046Z</time>
      </trkpt>
      <trkpt lat="45.38681" lon="5.68462">
        <ele>545</ele>
        <time>2013-08-10T09:03:47.046Z</time>
      </trkpt>
      <trkpt lat="45.38675" lon="5.68444">
        <ele>545</ele>
        <time>2013-08-10T09:03:52.391Z</time>
      </trkpt>
      <trkpt lat="45.38669" lon="5.68425">
        <ele>547</ele>
        <time>2013-08-10T09:03:57.028Z</time>
      </trkpt>
      <trkpt lat="45.38653" lon="5.68279">
        <ele>557</ele>
        <time>2013-08-10T09:04:42.265Z</time>
      </trkpt>
      <trkpt lat="45.38627" lon="5.6826">
        <ele>562</ele>
        <time>2013-08-10T09:04:52.089Z</time>
      </trkpt>
      <trkpt lat="45.38614" lon="5.68249">
        <ele>563</ele>
        <time>2013-08-10T09:04:57.048Z</time>
      </trkpt>
      <trkpt lat="45.38592" lon="5.6823">
        <ele>565</ele>
        <time>2013-08-10T09:05:07.053Z</time>
      </trkpt>
      <trkpt lat="45.3858" lon="5.68219">
        <ele>566</ele>
        <time>2013-08-10T09:05:12.034Z</time>
      </trkpt>
      <trkpt lat="45.3857" lon="5.68204">
        <ele>567</ele>
        <time>2013-08-10T09:05:17.056Z</time>
      </trkpt>
      <trkpt lat="45.38563" lon="5.68193">
        <ele>569</ele>
        <time>2013-08-10T09:05:22.061Z</time>
      </trkpt>
      <trkpt lat="45.38553" lon="5.68177">
        <ele>570</ele>
        <time>2013-08-10T09:05:27.055Z</time>
      </trkpt>
      <trkpt lat="45.38544" lon="5.68162">
        <ele>571</ele>
        <time>2013-08-10T09:05:32.046Z</time>
      </trkpt>
      <trkpt lat="45.38536" lon="5.6814">
        <ele>573</ele>
        <time>2013-08-10T09:05:37.048Z</time>
      </trkpt>
      <trkpt lat="45.38533" lon="5.68121">
        <ele>574</ele>
        <time>2013-08-10T09:05:42.046Z</time>
      </trkpt>
      <trkpt lat="45.38535" lon="5.68102">
        <ele>575</ele>
        <time>2013-08-10T09:05:47.045Z</time>
      </trkpt>
      <trkpt lat="45.38532" lon="5.68082">
        <ele>577</ele>
        <time>2013-08-10T09:05:52.057Z</time>
      </trkpt>
      <trkpt lat="45.38525" lon="5.68065">
        <ele>578</ele>
        <time>2013-08-10T09:05:57.047Z</time>
      </trkpt>
      <trkpt lat="45.38445" lon="5.67955">
        <ele>587</ele>
        <time>2013-08-10T09:06:37.059Z</time>
      </trkpt>
      <trkpt lat="45.38437" lon="5.67936">
        <ele>589</ele>
        <time>2013-08-10T09:06:42.047Z</time>
      </trkpt>
      <trkpt lat="45.38444" lon="5.67922">
        <ele>590</ele>
        <time>2013-08-10T09:06:47.045Z</time>
      </trkpt>
      <trkpt lat="45.38457" lon="5.67925">
        <ele>591</ele>
        <time>2013-08-10T09:06:52.058Z</time>
      </trkpt>
      <trkpt lat="45.38465" lon="5.6794">
        <ele>592</ele>
        <time>2013-08-10T09:06:57.054Z</time>
      </trkpt>
      <trkpt lat="45.38476" lon="5.67953">
        <ele>593</ele>
        <time>2013-08-10T09:07:02.049Z</time>
      </trkpt>
      <trkpt lat="45.38491" lon="5.67957">
        <ele>594</ele>
        <time>2013-08-10T09:07:07.054Z</time>
      </trkpt>
      <trkpt lat="45.38505" lon="5.67952">
        <ele>595</ele>
        <time>2013-08-10T09:07:12.055Z</time>
      </trkpt>
      <trkpt lat="45.38517" lon="5.67944">
        <ele>596</ele>
        <time>2013-08-10T09:07:17.043Z</time>
      </trkpt>
      <trkpt lat="45.3853" lon="5.67933">
        <ele>597</ele>
        <time>2013-08-10T09:07:22.055Z</time>
      </trkpt>
      <trkpt lat="45.38543" lon="5.67926">
        <ele>599</ele>
        <time>2013-08-10T09:07:27.059Z</time>
      </trkpt>
      <trkpt lat="45.38557" lon="5.67923">
        <ele>601</ele>
        <time>2013-08-10T09:07:32.047Z</time>
      </trkpt>
      <trkpt lat="45.3857" lon="5.6792">
        <ele>602</ele>
        <time>2013-08-10T09:07:37.047Z</time>
      </trkpt>
      <trkpt lat="45.38584" lon="5.67919">
        <ele>603</ele>
        <time>2013-08-10T09:07:42.047Z</time>
      </trkpt>
      <trkpt lat="45.38597" lon="5.67917">
        <ele>604</ele>
        <time>2013-08-10T09:07:47.047Z</time>
      </trkpt>
      <trkpt lat="45.38609" lon="5.67916">
        <ele>605</ele>
        <time>2013-08-10T09:07:52.057Z</time>
      </trkpt>
      <trkpt lat="45.38623" lon="5.67916">
        <ele>606</ele>
        <time>2013-08-10T09:07:57.031Z</time>
      </trkpt>
      <trkpt lat="45.38651" lon="5.67914">
        <ele>609</ele>
        <time>2013-08-10T09:08:07.043Z</time>
      </trkpt>
      <trkpt lat="45.38663" lon="5.67913">
        <ele>610</ele>
        <time>2013-08-10T09:08:12.047Z</time>
      </trkpt>
      <trkpt lat="45.38677" lon="5.67917">
        <ele>612</ele>
        <time>2013-08-10T09:08:17.046Z</time>
      </trkpt>
      <trkpt lat="45.38688" lon="5.67926">
        <ele>615</ele>
        <time>2013-08-10T09:08:22.065Z</time>
      </trkpt>
      <trkpt lat="45.38698" lon="5.6794">
        <ele>617</ele>
        <time>2013-08-10T09:08:27.053Z</time>
      </trkpt>
      <trkpt lat="45.38711" lon="5.67951">
        <ele>619</ele>
        <time>2013-08-10T09:08:32.051Z</time>
      </trkpt>
      <trkpt lat="45.38725" lon="5.67958">
        <ele>620</ele>
        <time>2013-08-10T09:08:37.047Z</time>
      </trkpt>
      <trkpt lat="45.3874" lon="5.67964">
        <ele>621</ele>
        <time>2013-08-10T09:08:42.047Z</time>
      </trkpt>
      <trkpt lat="45.38756" lon="5.67969">
        <ele>623</ele>
        <time>2013-08-10T09:08:47.047Z</time>
      </trkpt>
      <trkpt lat="45.38771" lon="5.67973">
        <ele>624</ele>
        <time>2013-08-10T09:08:52.060Z</time>
      </trkpt>
      <trkpt lat="45.38784" lon="5.67977">
        <ele>624</ele>
        <time>2013-08-10T09:08:57.056Z</time>
      </trkpt>
      <trkpt lat="45.38894" lon="5.67993">
        <ele>631</ele>
        <time>2013-08-10T09:09:37.042Z</time>
      </trkpt>
      <trkpt lat="45.38908" lon="5.67997">
        <ele>633</ele>
        <time>2013-08-10T09:09:42.047Z</time>
      </trkpt>
      <trkpt lat="45.38921" lon="5.67998">
        <ele>633</ele>
        <time>2013-08-10T09:09:47.039Z</time>
      </trkpt>
      <trkpt lat="45.38933" lon="5.67999">
        <ele>635</ele>
        <time>2013-08-10T09:09:52.066Z</time>
      </trkpt>
      <trkpt lat="45.38945" lon="5.67999">
        <ele>636</ele>
        <time>2013-08-10T09:09:57.047Z</time>
      </trkpt>
      <trkpt lat="45.3896" lon="5.67998">
        <ele>638</ele>
        <time>2013-08-10T09:10:02.047Z</time>
      </trkpt>
      <trkpt lat="45.38974" lon="5.68014">
        <ele>638</ele>
        <time>2013-08-10T09:10:07.048Z</time>
      </trkpt>
      <trkpt lat="45.38987" lon="5.68036">
        <ele>639</ele>
        <time>2013-08-10T09:10:12.046Z</time>
      </trkpt>
      <trkpt lat="45.38999" lon="5.68059">
        <ele>639</ele>
        <time>2013-08-10T09:10:17.048Z</time>
      </trkpt>
      <trkpt lat="45.39011" lon="5.68081">
        <ele>640</ele>
        <time>2013-08-10T09:10:22.057Z</time>
      </trkpt>
      <trkpt lat="45.39022" lon="5.681">
        <ele>639</ele>
        <time>2013-08-10T09:10:27.047Z</time>
      </trkpt>
      <trkpt lat="45.39033" lon="5.68117">
        <ele>639</ele>
        <time>2013-08-10T09:10:32.048Z</time>
      </trkpt>
      <trkpt lat="45.39044" lon="5.68134">
        <ele>638</ele>
        <time>2013-08-10T09:10:37.030Z</time>
      </trkpt>
      <trkpt lat="45.39058" lon="5.68159">
        <ele>640</ele>
        <time>2013-08-10T09:10:47.058Z</time>
      </trkpt>
      <trkpt lat="45.3906" lon="5.6816">
        <ele>640</ele>
        <time>2013-08-10T09:10:52.063Z</time>
      </trkpt>
      <trkpt lat="45.39061" lon="5.68161">
        <ele>641</ele>
        <time>2013-08-10T09:10:57.056Z</time>
      </trkpt>
      <trkpt lat="45.39062" lon="5.68161">
        <ele>641</ele>
        <time>2013-08-10T09:11:02.059Z</time>
      </trkpt>
      <trkpt lat="45.39062" lon="5.68161">
        <ele>640</ele>
        <time>2013-08-10T09:11:07.024Z</time>
      </trkpt>
      <trkpt lat="45.39062" lon="5.68162">
        <ele>640</ele>
        <time>2013-08-10T09:11:12.050Z</time>
      </trkpt>
      <trkpt lat="45.39064" lon="5.68162">
        <ele>641</ele>
        <time>2013-08-10T09:11:17.049Z</time>
      </trkpt>
      <trkpt lat="45.39067" lon="5.68166">
        <ele>641</ele>
        <time>2013-08-10T09:11:22.057Z</time>
      </trkpt>
      <trkpt lat="45.39071" lon="5.68173">
        <ele>641</ele>
        <time>2013-08-10T09:11:27.043Z</time>
      </trkpt>
      <trkpt lat="45.39075" lon="5.68181">
        <ele>641</ele>
        <time>2013-08-10T09:11:32.047Z</time>
      </trkpt>
      <trkpt lat="45.39081" lon="5.68191">
        <ele>641</ele>
        <time>2013-08-10T09:11:37.053Z</time>
      </trkpt>
      <trkpt lat="45.39087" lon="5.68201">
        <ele>641</ele>
        <time>2013-08-10T09:11:42.052Z</time>
      </trkpt>
      <trkpt lat="45.39095" lon="5.68214">
        <ele>642</ele>
        <time>2013-08-10T09:11:47.047Z</time>
      </trkpt>
      <trkpt lat="45.39104" lon="5.68225">
        <ele>643</ele>
        <time>2013-08-10T09:11:52.068Z</time>
      </trkpt>
      <trkpt lat="45.39111" lon="5.68233">
        <ele>643</ele>
        <time>2013-08-10T09:11:57.057Z</time>
      </trkpt>
      <trkpt lat="45.39119" lon="5.68246">
        <ele>643</ele>
        <time>2013-08-10T09:12:02.057Z</time>
      </trkpt>
      <trkpt lat="45.39127" lon="5.68255">
        <ele>643</ele>
        <time>2013-08-10T09:12:07.059Z</time>
      </trkpt>
      <trkpt lat="45.39132" lon="5.68264">
        <ele>642</ele>
        <time>2013-08-10T09:12:12.048Z</time>
      </trkpt>
      <trkpt lat="45.39141" lon="5.68275">
        <ele>643</ele>
        <time>2013-08-10T09:12:17.048Z</time>
      </trkpt>
      <trkpt lat="45.39151" lon="5.68288">
        <ele>643</ele>
        <time>2013-08-10T09:12:22.160Z</time>
      </trkpt>
      <trkpt lat="45.39163" lon="5.683">
        <ele>643</ele>
        <time>2013-08-10T09:12:27.040Z</time>
      </trkpt>
      <trkpt lat="45.39175" lon="5.68314">
        <ele>642</ele>
        <time>2013-08-10T09:12:32.038Z</time>
      </trkpt>
      <trkpt lat="45.39189" lon="5.68333">
        <ele>642</ele>
        <time>2013-08-10T09:12:37.061Z</time>
      </trkpt>
      <trkpt lat="45.39205" lon="5.68352">
        <ele>642</ele>
        <time>2013-08-10T09:12:42.047Z</time>
      </trkpt>
      <trkpt lat="45.39219" lon="5.68373">
        <ele>641</ele>
        <time>2013-08-10T09:12:47.055Z</time>
      </trkpt>
      <trkpt lat="45.39236" lon="5.6839">
        <ele>641</ele>
        <time>2013-08-10T09:12:52.059Z</time>
      </trkpt>
      <trkpt lat="45.39255" lon="5.68405">
        <ele>642</ele>
        <time>2013-08-10T09:12:57.043Z</time>
      </trkpt>
      <trkpt lat="45.39277" lon="5.68419">
        <ele>641</ele>
        <time>2013-08-10T09:13:02.043Z</time>
      </trkpt>
      <trkpt lat="45.39301" lon="5.68435">
        <ele>641</ele>
        <time>2013-08-10T09:13:07.098Z</time>
      </trkpt>
      <trkpt lat="45.39321" lon="5.6845">
        <ele>641</ele>
        <time>2013-08-10T09:13:12.033Z</time>
      </trkpt>
      <trkpt lat="45.3934" lon="5.68466">
        <ele>641</ele>
        <time>2013-08-10T09:13:17.036Z</time>
      </trkpt>
      <trkpt lat="45.39358" lon="5.68493">
        <ele>640</ele>
        <time>2013-08-10T09:13:22.066Z</time>
      </trkpt>
      <trkpt lat="45.39379" lon="5.68521">
        <ele>640</ele>
        <time>2013-08-10T09:13:27.048Z</time>
      </trkpt>
      <trkpt lat="45.39405" lon="5.6854">
        <ele>640</ele>
        <time>2013-08-10T09:13:32.047Z</time>
      </trkpt>
      <trkpt lat="45.39428" lon="5.68554">
        <ele>639</ele>
        <time>2013-08-10T09:13:37.049Z</time>
      </trkpt>
      <trkpt lat="45.39448" lon="5.68574">
        <ele>639</ele>
        <time>2013-08-10T09:13:42.049Z</time>
      </trkpt>
      <trkpt lat="45.39467" lon="5.68597">
        <ele>639</ele>
        <time>2013-08-10T09:13:47.047Z</time>
      </trkpt>
      <trkpt lat="45.3949" lon="5.68609">
        <ele>640</ele>
        <time>2013-08-10T09:13:52.057Z</time>
      </trkpt>
      <trkpt lat="45.39511" lon="5.68622">
        <ele>640</ele>
        <time>2013-08-10T09:13:57.046Z</time>
      </trkpt>
      <trkpt lat="45.3953" lon="5.68632">
        <ele>641</ele>
        <time>2013-08-10T09:14:02.046Z</time>
      </trkpt>
      <trkpt lat="45.3955" lon="5.68642">
        <ele>642</ele>
        <time>2013-08-10T09:14:07.050Z</time>
      </trkpt>
      <trkpt lat="45.39569" lon="5.68651">
        <ele>642</ele>
        <time>2013-08-10T09:14:12.051Z</time>
      </trkpt>
      <trkpt lat="45.39589" lon="5.68661">
        <ele>643</ele>
        <time>2013-08-10T09:14:17.046Z</time>
      </trkpt>
      <trkpt lat="45.39608" lon="5.68673">
        <ele>644</ele>
        <time>2013-08-10T09:14:22.064Z</time>
      </trkpt>
      <trkpt lat="45.39626" lon="5.68684">
        <ele>644</ele>
        <time>2013-08-10T09:14:27.047Z</time>
      </trkpt>
      <trkpt lat="45.39642" lon="5.68697">
        <ele>645</ele>
        <time>2013-08-10T09:14:32.048Z</time>
      </trkpt>
      <trkpt lat="45.39658" lon="5.68712">
        <ele>646</ele>
        <time>2013-08-10T09:14:37.056Z</time>
      </trkpt>
      <trkpt lat="45.39677" lon="5.68726">
        <ele>647</ele>
        <time>2013-08-10T09:14:42.048Z</time>
      </trkpt>
      <trkpt lat="45.39696" lon="5.68739">
        <ele>648</ele>
        <time>2013-08-10T09:14:47.049Z</time>
      </trkpt>
      <trkpt lat="45.39715" lon="5.68753">
        <ele>648</ele>
        <time>2013-08-10T09:14:52.062Z</time>
      </trkpt>
      <trkpt lat="45.39771" lon="5.68803">
        <ele>649</ele>
        <time>2013-08-10T09:15:07.038Z</time>
      </trkpt>
      <trkpt lat="45.39795" lon="5.68821">
        <ele>649</ele>
        <time>2013-08-10T09:15:12.053Z</time>
      </trkpt>
      <trkpt lat="45.39823" lon="5.68842">
        <ele>649</ele>
        <time>2013-08-10T09:15:17.051Z</time>
      </trkpt>
      <trkpt lat="45.39855" lon="5.68857">
        <ele>648</ele>
        <time>2013-08-10T09:15:22.067Z</time>
      </trkpt>
      <trkpt lat="45.39887" lon="5.68871">
        <ele>647</ele>
        <time>2013-08-10T09:15:27.048Z</time>
      </trkpt>
      <trkpt lat="45.39921" lon="5.68886">
        <ele>646</ele>
        <time>2013-08-10T09:15:32.044Z</time>
      </trkpt>
      <trkpt lat="45.3995" lon="5.68914">
        <ele>645</ele>
        <time>2013-08-10T09:15:37.047Z</time>
      </trkpt>
      <trkpt lat="45.39972" lon="5.68953">
        <ele>644</ele>
        <time>2013-08-10T09:15:42.047Z</time>
      </trkpt>
      <trkpt lat="45.39996" lon="5.68982">
        <ele>643</ele>
        <time>2013-08-10T09:15:47.056Z</time>
      </trkpt>
      <trkpt lat="45.40012" lon="5.69013">
        <ele>643</ele>
        <time>2013-08-10T09:15:52.065Z</time>
      </trkpt>
      <trkpt lat="45.4007" lon="5.69104">
        <ele>640</ele>
        <time>2013-08-10T09:16:07.053Z</time>
      </trkpt>
      <trkpt lat="45.40094" lon="5.69136">
        <ele>639</ele>
        <time>2013-08-10T09:16:12.050Z</time>
      </trkpt>
      <trkpt lat="45.40115" lon="5.69172">
        <ele>637</ele>
        <time>2013-08-10T09:16:17.043Z</time>
      </trkpt>
      <trkpt lat="45.40137" lon="5.69214">
        <ele>636</ele>
        <time>2013-08-10T09:16:22.056Z</time>
      </trkpt>
      <trkpt lat="45.4016" lon="5.69257">
        <ele>635</ele>
        <time>2013-08-10T09:16:27.047Z</time>
      </trkpt>
      <trkpt lat="45.40184" lon="5.69299">
        <ele>634</ele>
        <time>2013-08-10T09:16:32.042Z</time>
      </trkpt>
      <trkpt lat="45.40207" lon="5.69332">
        <ele>633</ele>
        <time>2013-08-10T09:16:37.042Z</time>
      </trkpt>
      <trkpt lat="45.40232" lon="5.6936">
        <ele>631</ele>
        <time>2013-08-10T09:16:42.045Z</time>
      </trkpt>
      <trkpt lat="45.40261" lon="5.69391">
        <ele>631</ele>
        <time>2013-08-10T09:16:47.044Z</time>
      </trkpt>
      <trkpt lat="45.40282" lon="5.69414">
        <ele>632</ele>
        <time>2013-08-10T09:16:52.064Z</time>
      </trkpt>
      <trkpt lat="45.40303" lon="5.69432">
        <ele>633</ele>
        <time>2013-08-10T09:16:57.047Z</time>
      </trkpt>
      <trkpt lat="45.40324" lon="5.69447">
        <ele>633</ele>
        <time>2013-08-10T09:17:02.047Z</time>
      </trkpt>
      <trkpt lat="45.40344" lon="5.69468">
        <ele>633</ele>
        <time>2013-08-10T09:17:07.044Z</time>
      </trkpt>
      <trkpt lat="45.40367" lon="5.69492">
        <ele>633</ele>
        <time>2013-08-10T09:17:12.046Z</time>
      </trkpt>
      <trkpt lat="45.40392" lon="5.69517">
        <ele>634</ele>
        <time>2013-08-10T09:17:17.049Z</time>
      </trkpt>
      <trkpt lat="45.40412" lon="5.69552">
        <ele>633</ele>
        <time>2013-08-10T09:17:22.067Z</time>
      </trkpt>
      <trkpt lat="45.40431" lon="5.69587">
        <ele>632</ele>
        <time>2013-08-10T09:17:27.055Z</time>
      </trkpt>
      <trkpt lat="45.40445" lon="5.69624">
        <ele>632</ele>
        <time>2013-08-10T09:17:32.043Z</time>
      </trkpt>
      <trkpt lat="45.40455" lon="5.69656">
        <ele>632</ele>
        <time>2013-08-10T09:17:37.053Z</time>
      </trkpt>
      <trkpt lat="45.40467" lon="5.69686">
        <ele>632</ele>
        <time>2013-08-10T09:17:42.046Z</time>
      </trkpt>
      <trkpt lat="45.4049" lon="5.69719">
        <ele>632</ele>
        <time>2013-08-10T09:17:47.046Z</time>
      </trkpt>
      <trkpt lat="45.40521" lon="5.69738">
        <ele>630</ele>
        <time>2013-08-10T09:17:52.065Z</time>
      </trkpt>
      <trkpt lat="45.40878" lon="5.69828">
        <ele>618</ele>
        <time>2013-08-10T09:18:47.047Z</time>
      </trkpt>
      <trkpt lat="45.40914" lon="5.6985">
        <ele>616</ele>
        <time>2013-08-10T09:18:52.060Z</time>
      </trkpt>
      <trkpt lat="45.40949" lon="5.69872">
        <ele>615</ele>
        <time>2013-08-10T09:18:57.045Z</time>
      </trkpt>
      <trkpt lat="45.41013" lon="5.69882">
        <ele>612</ele>
        <time>2013-08-10T09:19:07.043Z</time>
      </trkpt>
      <trkpt lat="45.41037" lon="5.69868">
        <ele>612</ele>
        <time>2013-08-10T09:19:12.049Z</time>
      </trkpt>
      <trkpt lat="45.41062" lon="5.69841">
        <ele>611</ele>
        <time>2013-08-10T09:19:17.031Z</time>
      </trkpt>
      <trkpt lat="45.4109" lon="5.69813">
        <ele>609</ele>
        <time>2013-08-10T09:19:22.055Z</time>
      </trkpt>
      <trkpt lat="45.4112" lon="5.69828">
        <ele>609</ele>
        <time>2013-08-10T09:19:27.049Z</time>
      </trkpt>
      <trkpt lat="45.41145" lon="5.69854">
        <ele>609</ele>
        <time>2013-08-10T09:19:32.042Z</time>
      </trkpt>
      <trkpt lat="45.41171" lon="5.69879">
        <ele>608</ele>
        <time>2013-08-10T09:19:37.053Z</time>
      </trkpt>
      <trkpt lat="45.41198" lon="5.69895">
        <ele>608</ele>
        <time>2013-08-10T09:19:42.056Z</time>
      </trkpt>
      <trkpt lat="45.41226" lon="5.6991">
        <ele>607</ele>
        <time>2013-08-10T09:19:47.046Z</time>
      </trkpt>
      <trkpt lat="45.41251" lon="5.69923">
        <ele>608</ele>
        <time>2013-08-10T09:19:52.058Z</time>
      </trkpt>
      <trkpt lat="45.41278" lon="5.69936">
        <ele>608</ele>
        <time>2013-08-10T09:19:57.046Z</time>
      </trkpt>
      <trkpt lat="45.41499" lon="5.69951">
        <ele>605</ele>
        <time>2013-08-10T09:20:37.060Z</time>
      </trkpt>
      <trkpt lat="45.41523" lon="5.69928">
        <ele>605</ele>
        <time>2013-08-10T09:20:42.045Z</time>
      </trkpt>
      <trkpt lat="45.4154" lon="5.69911">
        <ele>604</ele>
        <time>2013-08-10T09:20:47.049Z</time>
      </trkpt>
      <trkpt lat="45.41554" lon="5.69903">
        <ele>605</ele>
        <time>2013-08-10T09:20:52.064Z</time>
      </trkpt>
      <trkpt lat="45.41566" lon="5.69909">
        <ele>605</ele>
        <time>2013-08-10T09:20:57.048Z</time>
      </trkpt>
      <trkpt lat="45.41581" lon="5.69917">
        <ele>606</ele>
        <time>2013-08-10T09:21:02.128Z</time>
      </trkpt>
      <trkpt lat="45.41598" lon="5.69924">
        <ele>606</ele>
        <time>2013-08-10T09:21:07.053Z</time>
      </trkpt>
      <trkpt lat="45.4162" lon="5.69922">
        <ele>606</ele>
        <time>2013-08-10T09:21:12.049Z</time>
      </trkpt>
      <trkpt lat="45.41641" lon="5.69917">
        <ele>606</ele>
        <time>2013-08-10T09:21:17.030Z</time>
      </trkpt>
      <trkpt lat="45.41686" lon="5.69915">
        <ele>608</ele>
        <time>2013-08-10T09:21:27.049Z</time>
      </trkpt>
      <trkpt lat="45.41706" lon="5.69912">
        <ele>609</ele>
        <time>2013-08-10T09:21:32.048Z</time>
      </trkpt>
      <trkpt lat="45.41727" lon="5.6991">
        <ele>610</ele>
        <time>2013-08-10T09:21:37.047Z</time>
      </trkpt>
      <trkpt lat="45.41755" lon="5.69906">
        <ele>611</ele>
        <time>2013-08-10T09:21:42.051Z</time>
      </trkpt>
      <trkpt lat="45.41787" lon="5.69897">
        <ele>610</ele>
        <time>2013-08-10T09:21:47.049Z</time>
      </trkpt>
      <trkpt lat="45.41814" lon="5.69902">
        <ele>611</ele>
        <time>2013-08-10T09:21:52.058Z</time>
      </trkpt>
      <trkpt lat="45.41837" lon="5.69907">
        <ele>611</ele>
        <time>2013-08-10T09:21:57.049Z</time>
      </trkpt>
      <trkpt lat="45.41986" lon="5.69944">
        <ele>620</ele>
        <time>2013-08-10T09:22:37.035Z</time>
      </trkpt>
      <trkpt lat="45.42003" lon="5.69948">
        <ele>621</ele>
        <time>2013-08-10T09:22:42.048Z</time>
      </trkpt>
      <trkpt lat="45.42023" lon="5.69953">
        <ele>622</ele>
        <time>2013-08-10T09:22:47.049Z</time>
      </trkpt>
      <trkpt lat="45.42043" lon="5.69958">
        <ele>622</ele>
        <time>2013-08-10T09:22:52.068Z</time>
      </trkpt>
      <trkpt lat="45.42059" lon="5.69958">
        <ele>624</ele>
        <time>2013-08-10T09:22:57.047Z</time>
      </trkpt>
      <trkpt lat="45.42077" lon="5.69961">
        <ele>625</ele>
        <time>2013-08-10T09:23:02.044Z</time>
      </trkpt>
      <trkpt lat="45.42094" lon="5.69965">
        <ele>626</ele>
        <time>2013-08-10T09:23:07.044Z</time>
      </trkpt>
      <trkpt lat="45.42109" lon="5.69979">
        <ele>628</ele>
        <time>2013-08-10T09:23:12.053Z</time>
      </trkpt>
      <trkpt lat="45.42121" lon="5.69998">
        <ele>629</ele>
        <time>2013-08-10T09:23:17.044Z</time>
      </trkpt>
      <trkpt lat="45.42129" lon="5.70018">
        <ele>629</ele>
        <time>2013-08-10T09:23:22.054Z</time>
      </trkpt>
      <trkpt lat="45.42139" lon="5.70041">
        <ele>629</ele>
        <time>2013-08-10T09:23:27.047Z</time>
      </trkpt>
      <trkpt lat="45.42151" lon="5.70062">
        <ele>630</ele>
        <time>2013-08-10T09:23:32.049Z</time>
      </trkpt>
      <trkpt lat="45.42164" lon="5.7007">
        <ele>632</ele>
        <time>2013-08-10T09:23:37.056Z</time>
      </trkpt>
      <trkpt lat="45.42177" lon="5.70082">
        <ele>633</ele>
        <time>2013-08-10T09:23:42.039Z</time>
      </trkpt>
      <trkpt lat="45.42184" lon="5.70095">
        <ele>634</ele>
        <time>2013-08-10T09:23:47.044Z</time>
      </trkpt>
      <trkpt lat="45.42201" lon="5.70119">
        <ele>634</ele>
        <time>2013-08-10T09:23:52.067Z</time>
      </trkpt>
      <trkpt lat="45.42387" lon="5.70446">
        <ele>629</ele>
        <time>2013-08-10T09:24:42.311Z</time>
      </trkpt>
      <trkpt lat="45.4242" lon="5.70509">
        <ele>628</ele>
        <time>2013-08-10T09:24:52.056Z</time>
      </trkpt>
      <trkpt lat="45.42437" lon="5.70539">
        <ele>628</ele>
        <time>2013-08-10T09:24:57.047Z</time>
      </trkpt>
      <trkpt lat="45.42457" lon="5.70566">
        <ele>628</ele>
        <time>2013-08-10T09:25:02.052Z</time>
      </trkpt>
      <trkpt lat="45.42481" lon="5.70588">
        <ele>628</ele>
        <time>2013-08-10T09:25:07.044Z</time>
      </trkpt>
      <trkpt lat="45.42505" lon="5.70604">
        <ele>628</ele>
        <time>2013-08-10T09:25:12.048Z</time>
      </trkpt>
      <trkpt lat="45.42531" lon="5.70618">
        <ele>629</ele>
        <time>2013-08-10T09:25:17.048Z</time>
      </trkpt>
      <trkpt lat="45.42558" lon="5.70629">
        <ele>629</ele>
        <time>2013-08-10T09:25:22.063Z</time>
      </trkpt>
      <trkpt lat="45.42581" lon="5.7064">
        <ele>629</ele>
        <time>2013-08-10T09:25:27.048Z</time>
      </trkpt>
      <trkpt lat="45.42604" lon="5.70649">
        <ele>629</ele>
        <time>2013-08-10T09:25:32.046Z</time>
      </trkpt>
      <trkpt lat="45.4262" lon="5.70658">
        <ele>629</ele>
        <time>2013-08-10T09:25:37.046Z</time>
      </trkpt>
      <trkpt lat="45.42632" lon="5.70669">
        <ele>630</ele>
        <time>2013-08-10T09:25:42.043Z</time>
      </trkpt>
      <trkpt lat="45.42646" lon="5.70678">
        <ele>629</ele>
        <time>2013-08-10T09:25:47.054Z</time>
      </trkpt>
      <trkpt lat="45.42661" lon="5.70685">
        <ele>630</ele>
        <time>2013-08-10T09:25:52.068Z</time>
      </trkpt>
      <trkpt lat="45.42676" lon="5.7069">
        <ele>630</ele>
        <time>2013-08-10T09:25:57.047Z</time>
      </trkpt>
      <trkpt lat="45.42803" lon="5.70731">
        <ele>639</ele>
        <time>2013-08-10T09:26:42.049Z</time>
      </trkpt>
      <trkpt lat="45.42818" lon="5.70734">
        <ele>640</ele>
        <time>2013-08-10T09:26:47.054Z</time>
      </trkpt>
      <trkpt lat="45.42832" lon="5.70739">
        <ele>643</ele>
        <time>2013-08-10T09:26:52.066Z</time>
      </trkpt>
      <trkpt lat="45.42845" lon="5.70745">
        <ele>644</ele>
        <time>2013-08-10T09:26:57.043Z</time>
      </trkpt>
      <trkpt lat="45.42856" lon="5.70752">
        <ele>646</ele>
        <time>2013-08-10T09:27:02.047Z</time>
      </trkpt>
      <trkpt lat="45.42871" lon="5.70767">
        <ele>647</ele>
        <time>2013-08-10T09:27:07.054Z</time>
      </trkpt>
      <trkpt lat="45.42886" lon="5.70786">
        <ele>649</ele>
        <time>2013-08-10T09:27:12.051Z</time>
      </trkpt>
      <trkpt lat="45.42905" lon="5.708">
        <ele>651</ele>
        <time>2013-08-10T09:27:17.050Z</time>
      </trkpt>
      <trkpt lat="45.42921" lon="5.70806">
        <ele>653</ele>
        <time>2013-08-10T09:27:22.065Z</time>
      </trkpt>
      <trkpt lat="45.42936" lon="5.7081">
        <ele>655</ele>
        <time>2013-08-10T09:27:27.056Z</time>
      </trkpt>
      <trkpt lat="45.42952" lon="5.70814">
        <ele>656</ele>
        <time>2013-08-10T09:27:32.046Z</time>
      </trkpt>
      <trkpt lat="45.42966" lon="5.7082">
        <ele>656</ele>
        <time>2013-08-10T09:27:37.056Z</time>
      </trkpt>
      <trkpt lat="45.42981" lon="5.70825">
        <ele>657</ele>
        <time>2013-08-10T09:27:42.053Z</time>
      </trkpt>
      <trkpt lat="45.42997" lon="5.70835">
        <ele>656</ele>
        <time>2013-08-10T09:27:47.051Z</time>
      </trkpt>
      <trkpt lat="45.43013" lon="5.7084">
        <ele>657</ele>
        <time>2013-08-10T09:27:52.058Z</time>
      </trkpt>
      <trkpt lat="45.4303" lon="5.70846">
        <ele>657</ele>
        <time>2013-08-10T09:27:57.047Z</time>
      </trkpt>
      <trkpt lat="45.43044" lon="5.70852">
        <ele>658</ele>
        <time>2013-08-10T09:28:02.051Z</time>
      </trkpt>
      <trkpt lat="45.43058" lon="5.70858">
        <ele>659</ele>
        <time>2013-08-10T09:28:07.054Z</time>
      </trkpt>
      <trkpt lat="45.43077" lon="5.70856">
        <ele>659</ele>
        <time>2013-08-10T09:28:12.047Z</time>
      </trkpt>
      <trkpt lat="45.431" lon="5.70854">
        <ele>660</ele>
        <time>2013-08-10T09:28:17.047Z</time>
      </trkpt>
      <trkpt lat="45.43123" lon="5.70862">
        <ele>661</ele>
        <time>2013-08-10T09:28:22.058Z</time>
      </trkpt>
      <trkpt lat="45.43142" lon="5.70879">
        <ele>660</ele>
        <time>2013-08-10T09:28:27.054Z</time>
      </trkpt>
      <trkpt lat="45.43164" lon="5.70893">
        <ele>660</ele>
        <time>2013-08-10T09:28:32.047Z</time>
      </trkpt>
      <trkpt lat="45.43185" lon="5.70905">
        <ele>660</ele>
        <time>2013-08-10T09:28:37.061Z</time>
      </trkpt>
      <trkpt lat="45.43204" lon="5.70919">
        <ele>660</ele>
        <time>2013-08-10T09:28:42.047Z</time>
      </trkpt>
      <trkpt lat="45.43223" lon="5.70938">
        <ele>661</ele>
        <time>2013-08-10T09:28:47.065Z</time>
      </trkpt>
      <trkpt lat="45.43245" lon="5.7096">
        <ele>662</ele>
        <time>2013-08-10T09:28:52.057Z</time>
      </trkpt>
      <trkpt lat="45.43269" lon="5.70972">
        <ele>661</ele>
        <time>2013-08-10T09:28:57.047Z</time>
      </trkpt>
      <trkpt lat="45.43298" lon="5.70978">
        <ele>661</ele>
        <time>2013-08-10T09:29:02.049Z</time>
      </trkpt>
      <trkpt lat="45.43333" lon="5.70985">
        <ele>661</ele>
        <time>2013-08-10T09:29:07.045Z</time>
      </trkpt>
      <trkpt lat="45.43366" lon="5.70987">
        <ele>662</ele>
        <time>2013-08-10T09:29:12.030Z</time>
      </trkpt>
      <trkpt lat="45.43419" lon="5.70974">
        <ele>660</ele>
        <time>2013-08-10T09:29:22.068Z</time>
      </trkpt>
      <trkpt lat="45.4344" lon="5.70969">
        <ele>661</ele>
        <time>2013-08-10T09:29:27.044Z</time>
      </trkpt>
      <trkpt lat="45.4344" lon="5.70969">
        <ele>661</ele>
        <time>2013-08-10T09:29:27.044Z</time>
      </trkpt>
      <trkpt lat="45.43477" lon="5.70975">
        <ele>663</ele>
        <time>2013-08-10T09:29:37.043Z</time>
      </trkpt>
      <trkpt lat="45.43497" lon="5.70972">
        <ele>663</ele>
        <time>2013-08-10T09:29:42.030Z</time>
      </trkpt>
      <trkpt lat="45.43517" lon="5.70954">
        <ele>664</ele>
        <time>2013-08-10T09:29:47.045Z</time>
      </trkpt>
      <trkpt lat="45.43534" lon="5.70935">
        <ele>665</ele>
        <time>2013-08-10T09:29:52.146Z</time>
      </trkpt>
      <trkpt lat="45.43547" lon="5.7092">
        <ele>664</ele>
        <time>2013-08-10T09:29:57.160Z</time>
      </trkpt>
      <trkpt lat="45.43558" lon="5.70907">
        <ele>665</ele>
        <time>2013-08-10T09:30:02.177Z</time>
      </trkpt>
      <trkpt lat="45.4357" lon="5.70894">
        <ele>666</ele>
        <time>2013-08-10T09:30:07.128Z</time>
      </trkpt>
      <trkpt lat="45.43581" lon="5.7088">
        <ele>666</ele>
        <time>2013-08-10T09:30:12.127Z</time>
      </trkpt>
      <trkpt lat="45.43594" lon="5.70868">
        <ele>667</ele>
        <time>2013-08-10T09:30:17.139Z</time>
      </trkpt>
      <trkpt lat="45.43606" lon="5.70856">
        <ele>667</ele>
        <time>2013-08-10T09:30:22.138Z</time>
      </trkpt>
      <trkpt lat="45.4362" lon="5.70845">
        <ele>667</ele>
        <time>2013-08-10T09:30:27.151Z</time>
      </trkpt>
      <trkpt lat="45.43633" lon="5.70832">
        <ele>667</ele>
        <time>2013-08-10T09:30:32.146Z</time>
      </trkpt>
      <trkpt lat="45.43646" lon="5.70822">
        <ele>666</ele>
        <time>2013-08-10T09:30:37.146Z</time>
      </trkpt>
      <trkpt lat="45.43659" lon="5.70814">
        <ele>666</ele>
        <time>2013-08-10T09:30:42.147Z</time>
      </trkpt>
      <trkpt lat="45.43673" lon="5.70812">
        <ele>667</ele>
        <time>2013-08-10T09:30:47.147Z</time>
      </trkpt>
      <trkpt lat="45.43688" lon="5.70817">
        <ele>670</ele>
        <time>2013-08-10T09:30:52.147Z</time>
      </trkpt>
      <trkpt lat="45.43701" lon="5.70824">
        <ele>672</ele>
        <time>2013-08-10T09:30:57.164Z</time>
      </trkpt>
      <trkpt lat="45.43838" lon="5.70826">
        <ele>684</ele>
        <time>2013-08-10T09:31:42.552Z</time>
      </trkpt>
      <trkpt lat="45.43868" lon="5.70818">
        <ele>687</ele>
        <time>2013-08-10T09:31:52.149Z</time>
      </trkpt>
      <trkpt lat="45.4388" lon="5.70809">
        <ele>689</ele>
        <time>2013-08-10T09:31:57.158Z</time>
      </trkpt>
      <trkpt lat="45.43905" lon="5.70792">
        <ele>692</ele>
        <time>2013-08-10T09:32:07.148Z</time>
      </trkpt>
      <trkpt lat="45.43918" lon="5.70784">
        <ele>694</ele>
        <time>2013-08-10T09:32:12.153Z</time>
      </trkpt>
      <trkpt lat="45.4393" lon="5.70774">
        <ele>695</ele>
        <time>2013-08-10T09:32:17.147Z</time>
      </trkpt>
      <trkpt lat="45.43943" lon="5.70766">
        <ele>696</ele>
        <time>2013-08-10T09:32:22.147Z</time>
      </trkpt>
      <trkpt lat="45.43957" lon="5.70758">
        <ele>697</ele>
        <time>2013-08-10T09:32:27.164Z</time>
      </trkpt>
      <trkpt lat="45.43971" lon="5.70752">
        <ele>697</ele>
        <time>2013-08-10T09:32:32.154Z</time>
      </trkpt>
      <trkpt lat="45.43987" lon="5.70749">
        <ele>698</ele>
        <time>2013-08-10T09:32:37.153Z</time>
      </trkpt>
      <trkpt lat="45.44003" lon="5.7075">
        <ele>699</ele>
        <time>2013-08-10T09:32:42.153Z</time>
      </trkpt>
      <trkpt lat="45.44019" lon="5.7075">
        <ele>700</ele>
        <time>2013-08-10T09:32:47.146Z</time>
      </trkpt>
      <trkpt lat="45.44034" lon="5.70747">
        <ele>700</ele>
        <time>2013-08-10T09:32:52.145Z</time>
      </trkpt>
      <trkpt lat="45.44049" lon="5.70744">
        <ele>700</ele>
        <time>2013-08-10T09:32:57.154Z</time>
      </trkpt>
      <trkpt lat="45.44064" lon="5.70741">
        <ele>701</ele>
        <time>2013-08-10T09:33:02.150Z</time>
      </trkpt>
      <trkpt lat="45.44079" lon="5.70738">
        <ele>701</ele>
        <time>2013-08-10T09:33:07.143Z</time>
      </trkpt>
      <trkpt lat="45.44092" lon="5.70731">
        <ele>703</ele>
        <time>2013-08-10T09:33:12.146Z</time>
      </trkpt>
      <trkpt lat="45.44105" lon="5.70725">
        <ele>705</ele>
        <time>2013-08-10T09:33:17.148Z</time>
      </trkpt>
      <trkpt lat="45.44119" lon="5.7072">
        <ele>706</ele>
        <time>2013-08-10T09:33:22.143Z</time>
      </trkpt>
      <trkpt lat="45.44134" lon="5.70717">
        <ele>707</ele>
        <time>2013-08-10T09:33:27.159Z</time>
      </trkpt>
      <trkpt lat="45.44149" lon="5.70713">
        <ele>709</ele>
        <time>2013-08-10T09:33:32.147Z</time>
      </trkpt>
      <trkpt lat="45.44163" lon="5.70715">
        <ele>710</ele>
        <time>2013-08-10T09:33:37.146Z</time>
      </trkpt>
      <trkpt lat="45.44179" lon="5.70714">
        <ele>711</ele>
        <time>2013-08-10T09:33:42.147Z</time>
      </trkpt>
      <trkpt lat="45.44193" lon="5.70708">
        <ele>712</ele>
        <time>2013-08-10T09:33:47.143Z</time>
      </trkpt>
      <trkpt lat="45.44205" lon="5.70696">
        <ele>713</ele>
        <time>2013-08-10T09:33:52.143Z</time>
      </trkpt>
      <trkpt lat="45.44182" lon="5.70533">
        <ele>722</ele>
        <time>2013-08-10T09:34:37.140Z</time>
      </trkpt>
      <trkpt lat="45.44183" lon="5.70511">
        <ele>723</ele>
        <time>2013-08-10T09:34:42.148Z</time>
      </trkpt>
      <trkpt lat="45.44187" lon="5.70496">
        <ele>724</ele>
        <time>2013-08-10T09:34:47.159Z</time>
      </trkpt>
      <trkpt lat="45.44186" lon="5.70478">
        <ele>725</ele>
        <time>2013-08-10T09:34:52.146Z</time>
      </trkpt>
      <trkpt lat="45.44185" lon="5.70453">
        <ele>727</ele>
        <time>2013-08-10T09:34:57.157Z</time>
      </trkpt>
      <trkpt lat="45.44184" lon="5.7043">
        <ele>729</ele>
        <time>2013-08-10T09:35:02.147Z</time>
      </trkpt>
      <trkpt lat="45.44184" lon="5.70408">
        <ele>730</ele>
        <time>2013-08-10T09:35:07.146Z</time>
      </trkpt>
      <trkpt lat="45.44187" lon="5.70387">
        <ele>732</ele>
        <time>2013-08-10T09:35:12.148Z</time>
      </trkpt>
      <trkpt lat="45.4419" lon="5.70366">
        <ele>733</ele>
        <time>2013-08-10T09:35:17.146Z</time>
      </trkpt>
      <trkpt lat="45.44193" lon="5.70348">
        <ele>734</ele>
        <time>2013-08-10T09:35:22.146Z</time>
      </trkpt>
      <trkpt lat="45.44182" lon="5.70339">
        <ele>736</ele>
        <time>2013-08-10T09:35:27.158Z</time>
      </trkpt>
      <trkpt lat="45.44166" lon="5.70351">
        <ele>736</ele>
        <time>2013-08-10T09:35:32.146Z</time>
      </trkpt>
      <trkpt lat="45.44144" lon="5.70365">
        <ele>736</ele>
        <time>2013-08-10T09:35:37.146Z</time>
      </trkpt>
      <trkpt lat="45.4409" lon="5.70389">
        <ele>736</ele>
        <time>2013-08-10T09:35:47.130Z</time>
      </trkpt>
      <trkpt lat="45.44068" lon="5.70375">
        <ele>737</ele>
        <time>2013-08-10T09:35:52.144Z</time>
      </trkpt>
      <trkpt lat="45.44052" lon="5.70359">
        <ele>737</ele>
        <time>2013-08-10T09:35:57.158Z</time>
      </trkpt>
      <trkpt lat="45.43981" lon="5.70306">
        <ele>744</ele>
        <time>2013-08-10T09:36:37.146Z</time>
      </trkpt>
      <trkpt lat="45.43987" lon="5.70293">
        <ele>744</ele>
        <time>2013-08-10T09:36:42.149Z</time>
      </trkpt>
      <trkpt lat="45.43994" lon="5.7028">
        <ele>745</ele>
        <time>2013-08-10T09:36:47.148Z</time>
      </trkpt>
      <trkpt lat="45.44001" lon="5.70266">
        <ele>746</ele>
        <time>2013-08-10T09:36:52.146Z</time>
      </trkpt>
      <trkpt lat="45.44002" lon="5.70251">
        <ele>747</ele>
        <time>2013-08-10T09:36:57.154Z</time>
      </trkpt>
      <trkpt lat="45.44004" lon="5.70235">
        <ele>748</ele>
        <time>2013-08-10T09:37:02.148Z</time>
      </trkpt>
      <trkpt lat="45.44003" lon="5.70218">
        <ele>751</ele>
        <time>2013-08-10T09:37:07.143Z</time>
      </trkpt>
      <trkpt lat="45.43996" lon="5.70215">
        <ele>752</ele>
        <time>2013-08-10T09:37:12.145Z</time>
      </trkpt>
      <trkpt lat="45.43988" lon="5.70224">
        <ele>754</ele>
        <time>2013-08-10T09:37:17.146Z</time>
      </trkpt>
      <trkpt lat="45.43979" lon="5.70236">
        <ele>756</ele>
        <time>2013-08-10T09:37:22.150Z</time>
      </trkpt>
      <trkpt lat="45.43966" lon="5.70243">
        <ele>758</ele>
        <time>2013-08-10T09:37:27.166Z</time>
      </trkpt>
      <trkpt lat="45.43947" lon="5.7025">
        <ele>758</ele>
        <time>2013-08-10T09:37:32.130Z</time>
      </trkpt>
      <trkpt lat="45.439" lon="5.70252">
        <ele>758</ele>
        <time>2013-08-10T09:37:42.146Z</time>
      </trkpt>
      <trkpt lat="45.43875" lon="5.70263">
        <ele>757</ele>
        <time>2013-08-10T09:37:47.154Z</time>
      </trkpt>
      <trkpt lat="45.43861" lon="5.70299">
        <ele>757</ele>
        <time>2013-08-10T09:37:52.141Z</time>
      </trkpt>
      <trkpt lat="45.43839" lon="5.7032">
        <ele>756</ele>
        <time>2013-08-10T09:37:57.165Z</time>
      </trkpt>
      <trkpt lat="45.43831" lon="5.70379">
        <ele>752</ele>
        <time>2013-08-10T09:38:42.224Z</time>
      </trkpt>
      <trkpt lat="45.43832" lon="5.70378">
        <ele>753</ele>
        <time>2013-08-10T09:38:47.138Z</time>
      </trkpt>
      <trkpt lat="45.43831" lon="5.70379">
        <ele>753</ele>
        <time>2013-08-10T09:38:52.131Z</time>
      </trkpt>
      <trkpt lat="45.43826" lon="5.70383">
        <ele>754</ele>
        <time>2013-08-10T09:39:02.147Z</time>
      </trkpt>
      <trkpt lat="45.43821" lon="5.70385">
        <ele>756</ele>
        <time>2013-08-10T09:39:07.144Z</time>
      </trkpt>
      <trkpt lat="45.43818" lon="5.70388">
        <ele>759</ele>
        <time>2013-08-10T09:39:12.144Z</time>
      </trkpt>
      <trkpt lat="45.43824" lon="5.70388">
        <ele>758</ele>
        <time>2013-08-10T09:39:17.148Z</time>
      </trkpt>
      <trkpt lat="45.43826" lon="5.70388">
        <ele>758</ele>
        <time>2013-08-10T09:39:22.143Z</time>
      </trkpt>
      <trkpt lat="45.43828" lon="5.70387">
        <ele>756</ele>
        <time>2013-08-10T09:39:27.145Z</time>
      </trkpt>
      <trkpt lat="45.43831" lon="5.70386">
        <ele>754</ele>
        <time>2013-08-10T09:39:32.307Z</time>
      </trkpt>
      <trkpt lat="45.43834" lon="5.70384">
        <ele>752</ele>
        <time>2013-08-10T09:39:37.129Z</time>
      </trkpt>
    </trkseg>
  </trk>
</gpx>